﻿<?xml version="1.0" encoding="UTF-8" standalone="no" ?>
<gpx xmlns="http://www.topografix.com/GPX/1/1" creator="CompeGPS" version="1.1" xmlns:xsi="http://www.w3.org/2001/XMLSchema-instance" xsi:schemaLocation="http://www.topografix.com/GPX/1/1 http://www.topografix.com/GPX/1/1/gpx.xsd http://www.garmin.com/xmlschemas/GpxExtensions/v3 http://www.garmin.com/xmlschemas/GpxExtensionsv3.xsd http://www.garmin.com/xmlschemas/TrackPointExtension/v1 http://www.garmin.com/xmlschemas/TrackPointExtensionv1.xsd" xmlns:gpxtpx="http://www.garmin.com/xmlschemas/TrackPointExtension/v1">
  <metadata>
    <link href="http://www.compegps.com">
      <text>CompeGPS TEAM, SL</text>
    </link>
    <time>2020-03-16T16:53:29Z</time>
    <bounds maxlat="42.883615" maxlon="1.525349" minlat="42.854041" minlon="1.461872"/>
  </metadata>
  <trk>
    <name>cap_de_la_dosse</name>
    <userMyTwoNav></userMyTwoNav>
    <serialNumber></serialNumber>
    <trkseg>
      <trkpt lat="42.883615" lon="1.495613">
        <ele>901.4</ele>
        <time>2013-04-07T07:03:56Z</time>
        <cmt>Prat-Communal</cmt>
      </trkpt>
      <trkpt lat="42.883553" lon="1.495758">
        <ele>903.8</ele>
        <time>2013-04-07T07:05:16Z</time>
      </trkpt>
      <trkpt lat="42.883507" lon="1.495810">
        <ele>904.7</ele>
        <time>2013-04-07T07:05:40Z</time>
      </trkpt>
      <trkpt lat="42.883381" lon="1.495938">
        <ele>907.6</ele>
        <time>2013-04-07T07:06:23Z</time>
      </trkpt>
      <trkpt lat="42.883289" lon="1.495967">
        <ele>913.4</ele>
        <time>2013-04-07T07:07:02Z</time>
      </trkpt>
      <trkpt lat="42.883260" lon="1.496047">
        <ele>916.8</ele>
        <time>2013-04-07T07:07:27Z</time>
      </trkpt>
      <trkpt lat="42.883089" lon="1.496056">
        <ele>923.5</ele>
        <time>2013-04-07T07:08:15Z</time>
      </trkpt>
      <trkpt lat="42.882968" lon="1.496043">
        <ele>930.7</ele>
        <time>2013-04-07T07:08:48Z</time>
      </trkpt>
      <trkpt lat="42.882864" lon="1.495946">
        <ele>934.5</ele>
        <time>2013-04-07T07:10:11Z</time>
      </trkpt>
      <trkpt lat="42.882691" lon="1.495986">
        <ele>939.8</ele>
        <time>2013-04-07T07:10:43Z</time>
      </trkpt>
      <trkpt lat="42.882653" lon="1.496168">
        <ele>946.6</ele>
        <time>2013-04-07T07:11:20Z</time>
      </trkpt>
      <trkpt lat="42.882526" lon="1.496249">
        <ele>955.7</ele>
        <time>2013-04-07T07:12:13Z</time>
      </trkpt>
      <trkpt lat="42.882443" lon="1.496349">
        <ele>959.5</ele>
        <time>2013-04-07T07:12:43Z</time>
      </trkpt>
      <trkpt lat="42.882324" lon="1.496268">
        <ele>961.9</ele>
        <time>2013-04-07T07:13:04Z</time>
      </trkpt>
      <trkpt lat="42.882232" lon="1.496230">
        <ele>965.3</ele>
        <time>2013-04-07T07:13:21Z</time>
      </trkpt>
      <trkpt lat="42.882111" lon="1.496092">
        <ele>967.7</ele>
        <time>2013-04-07T07:13:41Z</time>
      </trkpt>
      <trkpt lat="42.882013" lon="1.495971">
        <ele>969.2</ele>
        <time>2013-04-07T07:13:58Z</time>
      </trkpt>
      <trkpt lat="42.881912" lon="1.495818">
        <ele>970.1</ele>
        <time>2013-04-07T07:14:13Z</time>
      </trkpt>
      <trkpt lat="42.881777" lon="1.495721">
        <ele>972.0</ele>
        <time>2013-04-07T07:14:34Z</time>
      </trkpt>
      <trkpt lat="42.881651" lon="1.495616">
        <ele>974.4</ele>
        <time>2013-04-07T07:14:52Z</time>
      </trkpt>
      <trkpt lat="42.881541" lon="1.495487">
        <ele>975.9</ele>
        <time>2013-04-07T07:15:08Z</time>
      </trkpt>
      <trkpt lat="42.881445" lon="1.495355">
        <ele>976.8</ele>
        <time>2013-04-07T07:15:28Z</time>
      </trkpt>
      <trkpt lat="42.881330" lon="1.495295">
        <ele>981.2</ele>
        <time>2013-04-07T07:15:50Z</time>
      </trkpt>
      <trkpt lat="42.881253" lon="1.495077">
        <ele>984.0</ele>
        <time>2013-04-07T07:16:13Z</time>
      </trkpt>
      <trkpt lat="42.881170" lon="1.494924">
        <ele>985.5</ele>
        <time>2013-04-07T07:16:30Z</time>
      </trkpt>
      <trkpt lat="42.881068" lon="1.494765">
        <ele>987.9</ele>
        <time>2013-04-07T07:16:51Z</time>
      </trkpt>
      <trkpt lat="42.880907" lon="1.494649">
        <ele>989.8</ele>
        <time>2013-04-07T07:17:59Z</time>
      </trkpt>
      <trkpt lat="42.880842" lon="1.494544">
        <ele>992.7</ele>
        <time>2013-04-07T07:18:13Z</time>
      </trkpt>
      <trkpt lat="42.880780" lon="1.494397">
        <ele>994.6</ele>
        <time>2013-04-07T07:18:28Z</time>
      </trkpt>
      <trkpt lat="42.880723" lon="1.494257">
        <ele>997.5</ele>
        <time>2013-04-07T07:18:43Z</time>
      </trkpt>
      <trkpt lat="42.880606" lon="1.494140">
        <ele>1000.4</ele>
        <time>2013-04-07T07:18:57Z</time>
      </trkpt>
      <trkpt lat="42.880543" lon="1.493999">
        <ele>1002.3</ele>
        <time>2013-04-07T07:19:12Z</time>
      </trkpt>
      <trkpt lat="42.880420" lon="1.493858">
        <ele>1003.8</ele>
        <time>2013-04-07T07:19:51Z</time>
      </trkpt>
      <trkpt lat="42.880315" lon="1.493696">
        <ele>1003.3</ele>
        <time>2013-04-07T07:20:05Z</time>
      </trkpt>
      <trkpt lat="42.880213" lon="1.493555">
        <ele>1003.3</ele>
        <time>2013-04-07T07:20:18Z</time>
      </trkpt>
      <trkpt lat="42.880130" lon="1.493450">
        <ele>1003.8</ele>
        <time>2013-04-07T07:20:28Z</time>
      </trkpt>
      <trkpt lat="42.880065" lon="1.493333">
        <ele>1004.7</ele>
        <time>2013-04-07T07:20:39Z</time>
      </trkpt>
      <trkpt lat="42.880015" lon="1.493154">
        <ele>1005.2</ele>
        <time>2013-04-07T07:20:51Z</time>
      </trkpt>
      <trkpt lat="42.879938" lon="1.493031">
        <ele>1006.6</ele>
        <time>2013-04-07T07:21:02Z</time>
      </trkpt>
      <trkpt lat="42.879877" lon="1.492919">
        <ele>1007.1</ele>
        <time>2013-04-07T07:21:13Z</time>
      </trkpt>
      <trkpt lat="42.879752" lon="1.492793">
        <ele>1010.5</ele>
        <time>2013-04-07T07:21:41Z</time>
        <cmt>Sarraute</cmt>
      </trkpt>
      <trkpt lat="42.879773" lon="1.492638">
        <ele>1010.0</ele>
        <time>2013-04-07T07:23:50Z</time>
      </trkpt>
      <trkpt lat="42.879764" lon="1.492428">
        <ele>1009.0</ele>
        <time>2013-04-07T07:24:04Z</time>
      </trkpt>
      <trkpt lat="42.879753" lon="1.492236">
        <ele>1008.1</ele>
        <time>2013-04-07T07:24:25Z</time>
      </trkpt>
      <trkpt lat="42.879842" lon="1.492078">
        <ele>1009.0</ele>
        <time>2013-04-07T07:24:52Z</time>
      </trkpt>
      <trkpt lat="42.879900" lon="1.491877">
        <ele>1012.4</ele>
        <time>2013-04-07T07:25:13Z</time>
      </trkpt>
      <trkpt lat="42.879910" lon="1.491684">
        <ele>1016.2</ele>
        <time>2013-04-07T07:25:35Z</time>
      </trkpt>
      <trkpt lat="42.879844" lon="1.491513">
        <ele>1019.1</ele>
        <time>2013-04-07T07:25:55Z</time>
      </trkpt>
      <trkpt lat="42.879746" lon="1.491328">
        <ele>1020.6</ele>
        <time>2013-04-07T07:26:15Z</time>
      </trkpt>
      <trkpt lat="42.879682" lon="1.491151">
        <ele>1021.5</ele>
        <time>2013-04-07T07:26:33Z</time>
      </trkpt>
      <trkpt lat="42.879617" lon="1.490962">
        <ele>1023.5</ele>
        <time>2013-04-07T07:26:52Z</time>
      </trkpt>
      <trkpt lat="42.879574" lon="1.490797">
        <ele>1024.4</ele>
        <time>2013-04-07T07:27:08Z</time>
      </trkpt>
      <trkpt lat="42.879509" lon="1.490656">
        <ele>1025.9</ele>
        <time>2013-04-07T07:27:25Z</time>
      </trkpt>
      <trkpt lat="42.879430" lon="1.490520">
        <ele>1027.8</ele>
        <time>2013-04-07T07:27:43Z</time>
      </trkpt>
      <trkpt lat="42.879340" lon="1.490395">
        <ele>1028.3</ele>
        <time>2013-04-07T07:27:57Z</time>
      </trkpt>
      <trkpt lat="42.879312" lon="1.490240">
        <ele>1029.2</ele>
        <time>2013-04-07T07:28:16Z</time>
      </trkpt>
      <trkpt lat="42.879283" lon="1.490089">
        <ele>1030.2</ele>
        <time>2013-04-07T07:28:29Z</time>
      </trkpt>
      <trkpt lat="42.879235" lon="1.489931">
        <ele>1030.7</ele>
        <time>2013-04-07T07:28:42Z</time>
      </trkpt>
      <trkpt lat="42.879200" lon="1.489802">
        <ele>1031.6</ele>
        <time>2013-04-07T07:28:57Z</time>
      </trkpt>
      <trkpt lat="42.879190" lon="1.489648">
        <ele>1032.1</ele>
        <time>2013-04-07T07:29:30Z</time>
      </trkpt>
      <trkpt lat="42.879159" lon="1.489504">
        <ele>1033.1</ele>
        <time>2013-04-07T07:29:42Z</time>
      </trkpt>
      <trkpt lat="42.879132" lon="1.489357">
        <ele>1034.0</ele>
        <time>2013-04-07T07:29:54Z</time>
      </trkpt>
      <trkpt lat="42.879083" lon="1.489206">
        <ele>1035.0</ele>
        <time>2013-04-07T07:30:07Z</time>
      </trkpt>
      <trkpt lat="42.879034" lon="1.489056">
        <ele>1036.0</ele>
        <time>2013-04-07T07:30:21Z</time>
      </trkpt>
      <trkpt lat="42.878995" lon="1.488913">
        <ele>1036.9</ele>
        <time>2013-04-07T07:30:34Z</time>
      </trkpt>
      <trkpt lat="42.878952" lon="1.488773">
        <ele>1038.8</ele>
        <time>2013-04-07T07:30:47Z</time>
      </trkpt>
      <trkpt lat="42.878902" lon="1.488637">
        <ele>1039.8</ele>
        <time>2013-04-07T07:31:01Z</time>
      </trkpt>
      <trkpt lat="42.878847" lon="1.488505">
        <ele>1040.3</ele>
        <time>2013-04-07T07:31:16Z</time>
      </trkpt>
      <trkpt lat="42.878807" lon="1.488368">
        <ele>1041.7</ele>
        <time>2013-04-07T07:31:30Z</time>
      </trkpt>
      <trkpt lat="42.878739" lon="1.488227">
        <ele>1043.2</ele>
        <time>2013-04-07T07:31:45Z</time>
      </trkpt>
      <trkpt lat="42.878705" lon="1.488091">
        <ele>1044.6</ele>
        <time>2013-04-07T07:32:00Z</time>
      </trkpt>
      <trkpt lat="42.878668" lon="1.487958">
        <ele>1045.1</ele>
        <time>2013-04-07T07:32:14Z</time>
      </trkpt>
      <trkpt lat="42.878611" lon="1.487846">
        <ele>1046.5</ele>
        <time>2013-04-07T07:32:28Z</time>
      </trkpt>
      <trkpt lat="42.878570" lon="1.487710">
        <ele>1048.0</ele>
        <time>2013-04-07T07:32:43Z</time>
      </trkpt>
      <trkpt lat="42.878510" lon="1.487597">
        <ele>1048.9</ele>
        <time>2013-04-07T07:32:56Z</time>
      </trkpt>
      <trkpt lat="42.878458" lon="1.487459">
        <ele>1049.9</ele>
        <time>2013-04-07T07:33:11Z</time>
      </trkpt>
      <trkpt lat="42.878416" lon="1.487312">
        <ele>1051.3</ele>
        <time>2013-04-07T07:33:26Z</time>
      </trkpt>
      <trkpt lat="42.878396" lon="1.487168">
        <ele>1051.8</ele>
        <time>2013-04-07T07:33:41Z</time>
      </trkpt>
      <trkpt lat="42.878352" lon="1.487037">
        <ele>1052.8</ele>
        <time>2013-04-07T07:33:55Z</time>
      </trkpt>
      <trkpt lat="42.878312" lon="1.486891">
        <ele>1054.2</ele>
        <time>2013-04-07T07:34:11Z</time>
      </trkpt>
      <trkpt lat="42.878258" lon="1.486726">
        <ele>1055.7</ele>
        <time>2013-04-07T07:34:28Z</time>
      </trkpt>
      <trkpt lat="42.878249" lon="1.486561">
        <ele>1056.6</ele>
        <time>2013-04-07T07:34:44Z</time>
      </trkpt>
      <trkpt lat="42.878310" lon="1.486532">
        <ele>1056.6</ele>
        <time>2013-04-07T07:35:53Z</time>
      </trkpt>
      <trkpt lat="42.878247" lon="1.486554">
        <ele>1055.7</ele>
        <time>2013-04-07T07:38:15Z</time>
      </trkpt>
      <trkpt lat="42.878265" lon="1.486523">
        <ele>1057.6</ele>
        <time>2013-04-07T07:43:09Z</time>
      </trkpt>
      <trkpt lat="42.878217" lon="1.486383">
        <ele>1058.6</ele>
        <time>2013-04-07T07:43:23Z</time>
      </trkpt>
      <trkpt lat="42.878183" lon="1.486232">
        <ele>1060.0</ele>
        <time>2013-04-07T07:43:36Z</time>
      </trkpt>
      <trkpt lat="42.878139" lon="1.486099">
        <ele>1061.4</ele>
        <time>2013-04-07T07:43:49Z</time>
      </trkpt>
      <trkpt lat="42.878117" lon="1.485957">
        <ele>1062.9</ele>
        <time>2013-04-07T07:44:01Z</time>
      </trkpt>
      <trkpt lat="42.878097" lon="1.485834">
        <ele>1064.3</ele>
        <time>2013-04-07T07:44:13Z</time>
      </trkpt>
      <trkpt lat="42.878074" lon="1.485693">
        <ele>1065.3</ele>
        <time>2013-04-07T07:44:26Z</time>
      </trkpt>
      <trkpt lat="42.878040" lon="1.485547">
        <ele>1066.2</ele>
        <time>2013-04-07T07:44:38Z</time>
      </trkpt>
      <trkpt lat="42.878014" lon="1.485410">
        <ele>1067.2</ele>
        <time>2013-04-07T07:44:51Z</time>
      </trkpt>
      <trkpt lat="42.877961" lon="1.485283">
        <ele>1068.6</ele>
        <time>2013-04-07T07:45:04Z</time>
      </trkpt>
      <trkpt lat="42.877915" lon="1.485155">
        <ele>1069.1</ele>
        <time>2013-04-07T07:45:17Z</time>
      </trkpt>
      <trkpt lat="42.877856" lon="1.485044">
        <ele>1070.6</ele>
        <time>2013-04-07T07:45:31Z</time>
      </trkpt>
      <trkpt lat="42.877825" lon="1.484889">
        <ele>1071.5</ele>
        <time>2013-04-07T07:45:47Z</time>
      </trkpt>
      <trkpt lat="42.877793" lon="1.484734">
        <ele>1073.0</ele>
        <time>2013-04-07T07:46:02Z</time>
      </trkpt>
      <trkpt lat="42.877758" lon="1.484570">
        <ele>1073.4</ele>
        <time>2013-04-07T07:46:17Z</time>
      </trkpt>
      <trkpt lat="42.877726" lon="1.484425">
        <ele>1074.4</ele>
        <time>2013-04-07T07:46:34Z</time>
      </trkpt>
      <trkpt lat="42.877678" lon="1.484286">
        <ele>1075.4</ele>
        <time>2013-04-07T07:46:52Z</time>
      </trkpt>
      <trkpt lat="42.877639" lon="1.484142">
        <ele>1075.8</ele>
        <time>2013-04-07T07:47:03Z</time>
      </trkpt>
      <trkpt lat="42.877567" lon="1.484028">
        <ele>1076.8</ele>
        <time>2013-04-07T07:47:13Z</time>
      </trkpt>
      <trkpt lat="42.877515" lon="1.483923">
        <ele>1077.3</ele>
        <time>2013-04-07T07:47:25Z</time>
      </trkpt>
      <trkpt lat="42.877443" lon="1.483830">
        <ele>1078.7</ele>
        <time>2013-04-07T07:47:37Z</time>
      </trkpt>
      <trkpt lat="42.877368" lon="1.483744">
        <ele>1079.7</ele>
        <time>2013-04-07T07:47:51Z</time>
      </trkpt>
      <trkpt lat="42.877278" lon="1.483660">
        <ele>1081.1</ele>
        <time>2013-04-07T07:48:05Z</time>
      </trkpt>
      <trkpt lat="42.877202" lon="1.483580">
        <ele>1082.6</ele>
        <time>2013-04-07T07:48:17Z</time>
      </trkpt>
      <trkpt lat="42.877187" lon="1.483426">
        <ele>1083.1</ele>
        <time>2013-04-07T07:48:33Z</time>
      </trkpt>
      <trkpt lat="42.877236" lon="1.483282">
        <ele>1084.5</ele>
        <time>2013-04-07T07:48:56Z</time>
      </trkpt>
      <trkpt lat="42.877279" lon="1.483126">
        <ele>1085.0</ele>
        <time>2013-04-07T07:49:09Z</time>
      </trkpt>
      <trkpt lat="42.877281" lon="1.482955">
        <ele>1085.5</ele>
        <time>2013-04-07T07:49:22Z</time>
      </trkpt>
      <trkpt lat="42.877248" lon="1.482803">
        <ele>1087.4</ele>
        <time>2013-04-07T07:49:36Z</time>
      </trkpt>
      <trkpt lat="42.877209" lon="1.482660">
        <ele>1087.9</ele>
        <time>2013-04-07T07:49:51Z</time>
      </trkpt>
      <trkpt lat="42.877178" lon="1.482522">
        <ele>1089.8</ele>
        <time>2013-04-07T07:50:05Z</time>
      </trkpt>
      <trkpt lat="42.877134" lon="1.482398">
        <ele>1089.8</ele>
        <time>2013-04-07T07:50:18Z</time>
      </trkpt>
      <trkpt lat="42.877108" lon="1.482270">
        <ele>1091.2</ele>
        <time>2013-04-07T07:50:31Z</time>
      </trkpt>
      <trkpt lat="42.877079" lon="1.482135">
        <ele>1091.7</ele>
        <time>2013-04-07T07:50:44Z</time>
      </trkpt>
      <trkpt lat="42.877064" lon="1.481975">
        <ele>1093.6</ele>
        <time>2013-04-07T07:50:59Z</time>
      </trkpt>
      <trkpt lat="42.877009" lon="1.481857">
        <ele>1094.1</ele>
        <time>2013-04-07T07:51:17Z</time>
      </trkpt>
      <trkpt lat="42.876987" lon="1.481742">
        <ele>1095.1</ele>
        <time>2013-04-07T07:51:52Z</time>
      </trkpt>
      <trkpt lat="42.876933" lon="1.481615">
        <ele>1096.0</ele>
        <time>2013-04-07T07:52:03Z</time>
      </trkpt>
      <trkpt lat="42.876867" lon="1.481492">
        <ele>1097.0</ele>
        <time>2013-04-07T07:52:16Z</time>
      </trkpt>
      <trkpt lat="42.876829" lon="1.481343">
        <ele>1097.5</ele>
        <time>2013-04-07T07:52:28Z</time>
      </trkpt>
      <trkpt lat="42.876812" lon="1.481194">
        <ele>1098.9</ele>
        <time>2013-04-07T07:52:41Z</time>
      </trkpt>
      <trkpt lat="42.876807" lon="1.481039">
        <ele>1099.4</ele>
        <time>2013-04-07T07:52:54Z</time>
      </trkpt>
      <trkpt lat="42.876798" lon="1.480880">
        <ele>1100.4</ele>
        <time>2013-04-07T07:53:10Z</time>
      </trkpt>
      <trkpt lat="42.876777" lon="1.480765">
        <ele>1100.8</ele>
        <time>2013-04-07T07:53:26Z</time>
      </trkpt>
      <trkpt lat="42.876744" lon="1.480637">
        <ele>1101.8</ele>
        <time>2013-04-07T07:53:37Z</time>
      </trkpt>
      <trkpt lat="42.876678" lon="1.480514">
        <ele>1102.3</ele>
        <time>2013-04-07T07:53:49Z</time>
      </trkpt>
      <trkpt lat="42.876652" lon="1.480358">
        <ele>1103.2</ele>
        <time>2013-04-07T07:54:02Z</time>
      </trkpt>
      <trkpt lat="42.876637" lon="1.480204">
        <ele>1104.2</ele>
        <time>2013-04-07T07:54:18Z</time>
      </trkpt>
      <trkpt lat="42.876604" lon="1.480048">
        <ele>1105.2</ele>
        <time>2013-04-07T07:54:32Z</time>
      </trkpt>
      <trkpt lat="42.876579" lon="1.479893">
        <ele>1106.1</ele>
        <time>2013-04-07T07:54:46Z</time>
      </trkpt>
      <trkpt lat="42.876592" lon="1.479737">
        <ele>1106.6</ele>
        <time>2013-04-07T07:55:00Z</time>
      </trkpt>
      <trkpt lat="42.876572" lon="1.479591">
        <ele>1108.1</ele>
        <time>2013-04-07T07:55:14Z</time>
      </trkpt>
      <trkpt lat="42.876543" lon="1.479418">
        <ele>1109.0</ele>
        <time>2013-04-07T07:55:29Z</time>
      </trkpt>
      <trkpt lat="42.876554" lon="1.479252">
        <ele>1110.0</ele>
        <time>2013-04-07T07:55:47Z</time>
      </trkpt>
      <trkpt lat="42.876534" lon="1.479092">
        <ele>1110.9</ele>
        <time>2013-04-07T07:56:02Z</time>
      </trkpt>
      <trkpt lat="42.876518" lon="1.478908">
        <ele>1112.9</ele>
        <time>2013-04-07T07:56:18Z</time>
      </trkpt>
      <trkpt lat="42.876480" lon="1.478768">
        <ele>1113.3</ele>
        <time>2013-04-07T07:56:31Z</time>
      </trkpt>
      <trkpt lat="42.876485" lon="1.478624">
        <ele>1114.3</ele>
        <time>2013-04-07T07:56:45Z</time>
      </trkpt>
      <trkpt lat="42.876448" lon="1.478463">
        <ele>1115.3</ele>
        <time>2013-04-07T07:57:58Z</time>
      </trkpt>
      <trkpt lat="42.876414" lon="1.478346">
        <ele>1116.7</ele>
        <time>2013-04-07T07:59:07Z</time>
      </trkpt>
      <trkpt lat="42.876382" lon="1.478183">
        <ele>1117.7</ele>
        <time>2013-04-07T07:59:23Z</time>
      </trkpt>
      <trkpt lat="42.876367" lon="1.478013">
        <ele>1118.6</ele>
        <time>2013-04-07T07:59:43Z</time>
      </trkpt>
      <trkpt lat="42.876374" lon="1.477833">
        <ele>1120.6</ele>
        <time>2013-04-07T08:00:03Z</time>
      </trkpt>
      <trkpt lat="42.876322" lon="1.477685">
        <ele>1122.0</ele>
        <time>2013-04-07T08:00:20Z</time>
      </trkpt>
      <trkpt lat="42.876336" lon="1.477543">
        <ele>1123.0</ele>
        <time>2013-04-07T08:00:36Z</time>
      </trkpt>
      <trkpt lat="42.876341" lon="1.477403">
        <ele>1124.4</ele>
        <time>2013-04-07T08:00:50Z</time>
      </trkpt>
      <trkpt lat="42.876332" lon="1.477268">
        <ele>1125.8</ele>
        <time>2013-04-07T08:01:06Z</time>
      </trkpt>
      <trkpt lat="42.876393" lon="1.477131">
        <ele>1126.3</ele>
        <time>2013-04-07T08:01:20Z</time>
      </trkpt>
      <trkpt lat="42.876422" lon="1.477011">
        <ele>1126.8</ele>
        <time>2013-04-07T08:01:34Z</time>
      </trkpt>
      <trkpt lat="42.876454" lon="1.476872">
        <ele>1128.7</ele>
        <time>2013-04-07T08:01:51Z</time>
      </trkpt>
      <trkpt lat="42.876447" lon="1.476715">
        <ele>1129.2</ele>
        <time>2013-04-07T08:02:07Z</time>
      </trkpt>
      <trkpt lat="42.876498" lon="1.476605">
        <ele>1131.1</ele>
        <time>2013-04-07T08:02:33Z</time>
      </trkpt>
      <trkpt lat="42.876455" lon="1.476729">
        <ele>1133.5</ele>
        <time>2013-04-07T08:02:53Z</time>
      </trkpt>
      <trkpt lat="42.876367" lon="1.476865">
        <ele>1134.5</ele>
        <time>2013-04-07T08:03:24Z</time>
      </trkpt>
      <trkpt lat="42.876362" lon="1.477023">
        <ele>1135.4</ele>
        <time>2013-04-07T08:03:51Z</time>
      </trkpt>
      <trkpt lat="42.876305" lon="1.477127">
        <ele>1137.4</ele>
        <time>2013-04-07T08:04:12Z</time>
      </trkpt>
      <trkpt lat="42.876229" lon="1.477240">
        <ele>1139.3</ele>
        <time>2013-04-07T08:04:33Z</time>
      </trkpt>
      <trkpt lat="42.876220" lon="1.477348">
        <ele>1139.3</ele>
        <time>2013-04-07T08:04:48Z</time>
      </trkpt>
      <trkpt lat="42.876165" lon="1.477466">
        <ele>1140.7</ele>
        <time>2013-04-07T08:05:08Z</time>
      </trkpt>
      <trkpt lat="42.876088" lon="1.477584">
        <ele>1142.7</ele>
        <time>2013-04-07T08:05:23Z</time>
      </trkpt>
      <trkpt lat="42.876035" lon="1.477743">
        <ele>1144.6</ele>
        <time>2013-04-07T08:05:41Z</time>
      </trkpt>
      <trkpt lat="42.876040" lon="1.477878">
        <ele>1147.0</ele>
        <time>2013-04-07T08:06:01Z</time>
      </trkpt>
      <trkpt lat="42.876008" lon="1.478002">
        <ele>1148.4</ele>
        <time>2013-04-07T08:06:19Z</time>
      </trkpt>
      <trkpt lat="42.875976" lon="1.478108">
        <ele>1150.8</ele>
        <time>2013-04-07T08:06:59Z</time>
      </trkpt>
      <trkpt lat="42.875960" lon="1.478226">
        <ele>1151.8</ele>
        <time>2013-04-07T08:07:14Z</time>
      </trkpt>
      <trkpt lat="42.875922" lon="1.478353">
        <ele>1154.7</ele>
        <time>2013-04-07T08:07:31Z</time>
      </trkpt>
      <trkpt lat="42.875867" lon="1.478503">
        <ele>1155.6</ele>
        <time>2013-04-07T08:07:50Z</time>
      </trkpt>
      <trkpt lat="42.875866" lon="1.478617">
        <ele>1157.6</ele>
        <time>2013-04-07T08:08:08Z</time>
      </trkpt>
      <trkpt lat="42.875844" lon="1.478738">
        <ele>1159.0</ele>
        <time>2013-04-07T08:08:23Z</time>
      </trkpt>
      <trkpt lat="42.875815" lon="1.478880">
        <ele>1161.4</ele>
        <time>2013-04-07T08:08:40Z</time>
      </trkpt>
      <trkpt lat="42.875795" lon="1.479047">
        <ele>1163.3</ele>
        <time>2013-04-07T08:08:58Z</time>
      </trkpt>
      <trkpt lat="42.875771" lon="1.479184">
        <ele>1164.8</ele>
        <time>2013-04-07T08:09:16Z</time>
      </trkpt>
      <trkpt lat="42.875775" lon="1.479318">
        <ele>1166.7</ele>
        <time>2013-04-07T08:09:38Z</time>
      </trkpt>
      <trkpt lat="42.875718" lon="1.479430">
        <ele>1168.1</ele>
        <time>2013-04-07T08:10:10Z</time>
      </trkpt>
      <trkpt lat="42.875726" lon="1.479556">
        <ele>1170.5</ele>
        <time>2013-04-07T08:10:32Z</time>
      </trkpt>
      <trkpt lat="42.875718" lon="1.479694">
        <ele>1172.0</ele>
        <time>2013-04-07T08:10:54Z</time>
      </trkpt>
      <trkpt lat="42.875708" lon="1.479817">
        <ele>1174.4</ele>
        <time>2013-04-07T08:11:14Z</time>
      </trkpt>
      <trkpt lat="42.875676" lon="1.479933">
        <ele>1175.3</ele>
        <time>2013-04-07T08:11:32Z</time>
      </trkpt>
      <trkpt lat="42.875671" lon="1.480047">
        <ele>1176.3</ele>
        <time>2013-04-07T08:11:47Z</time>
      </trkpt>
      <trkpt lat="42.875688" lon="1.480174">
        <ele>1178.7</ele>
        <time>2013-04-07T08:12:11Z</time>
      </trkpt>
      <trkpt lat="42.875695" lon="1.480358">
        <ele>1181.6</ele>
        <time>2013-04-07T08:12:39Z</time>
      </trkpt>
      <trkpt lat="42.875697" lon="1.480495">
        <ele>1183.5</ele>
        <time>2013-04-07T08:12:59Z</time>
      </trkpt>
      <trkpt lat="42.875657" lon="1.480631">
        <ele>1186.9</ele>
        <time>2013-04-07T08:13:20Z</time>
      </trkpt>
      <trkpt lat="42.875644" lon="1.480750">
        <ele>1188.3</ele>
        <time>2013-04-07T08:13:35Z</time>
      </trkpt>
      <trkpt lat="42.875595" lon="1.480848">
        <ele>1190.7</ele>
        <time>2013-04-07T08:13:56Z</time>
      </trkpt>
      <trkpt lat="42.875529" lon="1.480940">
        <ele>1193.1</ele>
        <time>2013-04-07T08:14:16Z</time>
      </trkpt>
      <trkpt lat="42.875485" lon="1.481056">
        <ele>1196.0</ele>
        <time>2013-04-07T08:14:36Z</time>
      </trkpt>
      <trkpt lat="42.875462" lon="1.481169">
        <ele>1198.9</ele>
        <time>2013-04-07T08:14:56Z</time>
      </trkpt>
      <trkpt lat="42.875421" lon="1.481305">
        <ele>1202.3</ele>
        <time>2013-04-07T08:15:19Z</time>
      </trkpt>
      <trkpt lat="42.875360" lon="1.481403">
        <ele>1204.7</ele>
        <time>2013-04-07T08:15:39Z</time>
      </trkpt>
      <trkpt lat="42.875280" lon="1.481512">
        <ele>1208.0</ele>
        <time>2013-04-07T08:16:02Z</time>
      </trkpt>
      <trkpt lat="42.875221" lon="1.481634">
        <ele>1210.4</ele>
        <time>2013-04-07T08:16:24Z</time>
      </trkpt>
      <trkpt lat="42.875193" lon="1.481791">
        <ele>1215.7</ele>
        <time>2013-04-07T08:18:14Z</time>
      </trkpt>
      <trkpt lat="42.875149" lon="1.481801">
        <ele>1216.2</ele>
        <time>2013-04-07T08:19:19Z</time>
      </trkpt>
      <trkpt lat="42.875114" lon="1.481942">
        <ele>1218.6</ele>
        <time>2013-04-07T08:19:37Z</time>
      </trkpt>
      <trkpt lat="42.874999" lon="1.482017">
        <ele>1223.4</ele>
        <time>2013-04-07T08:19:58Z</time>
      </trkpt>
      <trkpt lat="42.874855" lon="1.481926">
        <ele>1226.8</ele>
        <time>2013-04-07T08:20:31Z</time>
      </trkpt>
      <trkpt lat="42.874814" lon="1.481780">
        <ele>1227.3</ele>
        <time>2013-04-07T08:20:44Z</time>
      </trkpt>
      <trkpt lat="42.874779" lon="1.481626">
        <ele>1230.1</ele>
        <time>2013-04-07T08:21:03Z</time>
      </trkpt>
      <trkpt lat="42.874771" lon="1.481468">
        <ele>1232.6</ele>
        <time>2013-04-07T08:21:26Z</time>
      </trkpt>
      <trkpt lat="42.874782" lon="1.481312">
        <ele>1234.0</ele>
        <time>2013-04-07T08:21:45Z</time>
      </trkpt>
      <trkpt lat="42.874893" lon="1.481173">
        <ele>1235.9</ele>
        <time>2013-04-07T08:22:02Z</time>
      </trkpt>
      <trkpt lat="42.874963" lon="1.481058">
        <ele>1237.3</ele>
        <time>2013-04-07T08:22:20Z</time>
      </trkpt>
      <trkpt lat="42.875005" lon="1.480930">
        <ele>1237.8</ele>
        <time>2013-04-07T08:23:01Z</time>
      </trkpt>
      <trkpt lat="42.875033" lon="1.480829">
        <ele>1237.8</ele>
        <time>2013-04-07T08:23:22Z</time>
      </trkpt>
      <trkpt lat="42.875085" lon="1.480671">
        <ele>1239.3</ele>
        <time>2013-04-07T08:23:39Z</time>
      </trkpt>
      <trkpt lat="42.875092" lon="1.480533">
        <ele>1239.8</ele>
        <time>2013-04-07T08:23:55Z</time>
      </trkpt>
      <trkpt lat="42.875052" lon="1.480401">
        <ele>1240.7</ele>
        <time>2013-04-07T08:24:08Z</time>
      </trkpt>
      <trkpt lat="42.874986" lon="1.480266">
        <ele>1241.7</ele>
        <time>2013-04-07T08:24:21Z</time>
      </trkpt>
      <trkpt lat="42.874955" lon="1.480147">
        <ele>1242.6</ele>
        <time>2013-04-07T08:24:34Z</time>
      </trkpt>
      <trkpt lat="42.874928" lon="1.480034">
        <ele>1244.1</ele>
        <time>2013-04-07T08:24:46Z</time>
      </trkpt>
      <trkpt lat="42.874908" lon="1.479915">
        <ele>1244.1</ele>
        <time>2013-04-07T08:24:59Z</time>
      </trkpt>
      <trkpt lat="42.874884" lon="1.479813">
        <ele>1245.5</ele>
        <time>2013-04-07T08:25:11Z</time>
      </trkpt>
      <trkpt lat="42.874887" lon="1.479685">
        <ele>1246.5</ele>
        <time>2013-04-07T08:25:34Z</time>
      </trkpt>
      <trkpt lat="42.874882" lon="1.479569">
        <ele>1246.5</ele>
        <time>2013-04-07T08:26:13Z</time>
      </trkpt>
      <trkpt lat="42.874833" lon="1.479363">
        <ele>1190.8</ele>
        <time>2013-04-07T08:29:33Z</time>
      </trkpt>
      <trkpt lat="42.874787" lon="1.479139">
        <ele>1194.4</ele>
        <time>2013-04-07T08:30:06Z</time>
      </trkpt>
      <trkpt lat="42.874749" lon="1.478953">
        <ele>1198.5</ele>
        <time>2013-04-07T08:30:47Z</time>
      </trkpt>
      <trkpt lat="42.874705" lon="1.478777">
        <ele>1203.1</ele>
        <time>2013-04-07T08:31:28Z</time>
      </trkpt>
      <trkpt lat="42.874679" lon="1.478624">
        <ele>1206.2</ele>
        <time>2013-04-07T08:32:02Z</time>
      </trkpt>
      <trkpt lat="42.874625" lon="1.478672">
        <ele>1211.5</ele>
        <time>2013-04-07T08:32:25Z</time>
      </trkpt>
      <trkpt lat="42.874601" lon="1.478748">
        <ele>1213.3</ele>
        <time>2013-04-07T08:32:43Z</time>
      </trkpt>
      <trkpt lat="42.874580" lon="1.478860">
        <ele>1215.0</ele>
        <time>2013-04-07T08:33:07Z</time>
      </trkpt>
      <trkpt lat="42.874538" lon="1.479024">
        <ele>1218.0</ele>
        <time>2013-04-07T08:33:45Z</time>
      </trkpt>
      <trkpt lat="42.874482" lon="1.479308">
        <ele>1221.6</ele>
        <time>2013-04-07T08:34:30Z</time>
      </trkpt>
      <trkpt lat="42.874442" lon="1.479465">
        <ele>1224.3</ele>
        <time>2013-04-07T08:37:16Z</time>
      </trkpt>
      <trkpt lat="42.874348" lon="1.479574">
        <ele>1231.6</ele>
        <time>2013-04-07T08:37:50Z</time>
      </trkpt>
      <trkpt lat="42.874282" lon="1.479699">
        <ele>1235.9</ele>
        <time>2013-04-07T08:39:25Z</time>
      </trkpt>
      <trkpt lat="42.874276" lon="1.479549">
        <ele>1237.7</ele>
        <time>2013-04-07T08:39:53Z</time>
      </trkpt>
      <trkpt lat="42.874284" lon="1.479191">
        <ele>1240.1</ele>
        <time>2013-04-07T08:40:17Z</time>
      </trkpt>
      <trkpt lat="42.874306" lon="1.478795">
        <ele>1241.9</ele>
        <time>2013-04-07T08:40:53Z</time>
      </trkpt>
      <trkpt lat="42.874297" lon="1.478534">
        <ele>1245.5</ele>
        <time>2013-04-07T08:42:47Z</time>
      </trkpt>
      <trkpt lat="42.874312" lon="1.478228">
        <ele>1248.0</ele>
        <time>2013-04-07T08:45:02Z</time>
      </trkpt>
      <trkpt lat="42.874356" lon="1.477802">
        <ele>1252.6</ele>
        <time>2013-04-07T08:45:43Z</time>
      </trkpt>
      <trkpt lat="42.874376" lon="1.477661">
        <ele>1253.5</ele>
        <time>2013-04-07T08:46:04Z</time>
      </trkpt>
      <trkpt lat="42.874447" lon="1.477481">
        <ele>1249.6</ele>
        <time>2013-04-07T08:46:35Z</time>
      </trkpt>
      <trkpt lat="42.874435" lon="1.477293">
        <ele>1254.1</ele>
        <time>2013-04-07T09:14:09Z</time>
      </trkpt>
      <trkpt lat="42.874427" lon="1.477099">
        <ele>1258.9</ele>
        <time>2013-04-07T09:15:32Z</time>
      </trkpt>
      <trkpt lat="42.874378" lon="1.477027">
        <ele>1266.0</ele>
        <time>2013-04-07T09:17:03Z</time>
      </trkpt>
      <trkpt lat="42.874330" lon="1.476884">
        <ele>1274.3</ele>
        <time>2013-04-07T09:19:11Z</time>
      </trkpt>
      <trkpt lat="42.874306" lon="1.476742">
        <ele>1279.6</ele>
        <time>2013-04-07T09:20:02Z</time>
      </trkpt>
      <trkpt lat="42.874255" lon="1.476554">
        <ele>1286.7</ele>
        <time>2013-04-07T09:21:14Z</time>
      </trkpt>
      <trkpt lat="42.874151" lon="1.476358">
        <ele>1297.4</ele>
        <time>2013-04-07T09:21:25Z</time>
      </trkpt>
      <trkpt lat="42.874036" lon="1.476187">
        <ele>1305.3</ele>
        <time>2013-04-07T09:21:35Z</time>
      </trkpt>
      <trkpt lat="42.873883" lon="1.475995">
        <ele>1315.6</ele>
        <time>2013-04-07T09:21:48Z</time>
      </trkpt>
      <trkpt lat="42.873798" lon="1.475760">
        <ele>1320.6</ele>
        <time>2013-04-07T09:21:59Z</time>
      </trkpt>
      <trkpt lat="42.873774" lon="1.476084">
        <ele>1323.7</ele>
        <time>2013-04-07T09:22:13Z</time>
      </trkpt>
      <trkpt lat="42.873747" lon="1.476259">
        <ele>1326.5</ele>
        <time>2013-04-07T09:22:20Z</time>
      </trkpt>
      <trkpt lat="42.873707" lon="1.476590">
        <ele>1330.8</ele>
        <time>2013-04-07T09:22:34Z</time>
      </trkpt>
      <trkpt lat="42.873728" lon="1.476837">
        <ele>1328.4</ele>
        <time>2013-04-07T09:22:45Z</time>
      </trkpt>
      <trkpt lat="42.873692" lon="1.477040">
        <ele>1329.9</ele>
        <time>2013-04-07T09:24:08Z</time>
      </trkpt>
      <trkpt lat="42.873667" lon="1.477135">
        <ele>1331.1</ele>
        <time>2013-04-07T09:24:49Z</time>
      </trkpt>
      <trkpt lat="42.873530" lon="1.477114">
        <ele>1343.0</ele>
        <time>2013-04-07T09:26:04Z</time>
      </trkpt>
      <trkpt lat="42.873471" lon="1.476986">
        <ele>1348.2</ele>
        <time>2013-04-07T09:26:52Z</time>
      </trkpt>
      <trkpt lat="42.873418" lon="1.476920">
        <ele>1352.8</ele>
        <time>2013-04-07T09:27:26Z</time>
      </trkpt>
      <trkpt lat="42.873327" lon="1.476699">
        <ele>1359.4</ele>
        <time>2013-04-07T09:28:12Z</time>
      </trkpt>
      <trkpt lat="42.873195" lon="1.477204">
        <ele>1368.7</ele>
        <time>2013-04-07T09:29:06Z</time>
      </trkpt>
      <trkpt lat="42.873064" lon="1.477488">
        <ele>1378.1</ele>
        <time>2013-04-07T09:29:46Z</time>
      </trkpt>
      <trkpt lat="42.872966" lon="1.477702">
        <ele>1437.3</ele>
        <time>2013-04-07T09:30:31Z</time>
        <cmt>Sortie foret</cmt>
      </trkpt>
      <trkpt lat="42.872854" lon="1.477733">
        <ele>1440.7</ele>
        <time>2013-04-07T09:45:56Z</time>
      </trkpt>
      <trkpt lat="42.872820" lon="1.477736">
        <ele>1441.6</ele>
        <time>2013-04-07T09:48:23Z</time>
      </trkpt>
      <trkpt lat="42.872785" lon="1.477672">
        <ele>1442.6</ele>
        <time>2013-04-07T09:50:07Z</time>
      </trkpt>
      <trkpt lat="42.872705" lon="1.477649">
        <ele>1444.5</ele>
        <time>2013-04-07T09:50:25Z</time>
      </trkpt>
      <trkpt lat="42.872650" lon="1.477608">
        <ele>1447.4</ele>
        <time>2013-04-07T09:51:08Z</time>
      </trkpt>
      <trkpt lat="42.872584" lon="1.477546">
        <ele>1447.9</ele>
        <time>2013-04-07T09:51:33Z</time>
      </trkpt>
      <trkpt lat="42.872505" lon="1.477500">
        <ele>1452.7</ele>
        <time>2013-04-07T09:51:58Z</time>
      </trkpt>
      <trkpt lat="42.872453" lon="1.477403">
        <ele>1455.6</ele>
        <time>2013-04-07T09:52:20Z</time>
      </trkpt>
      <trkpt lat="42.872392" lon="1.477324">
        <ele>1457.0</ele>
        <time>2013-04-07T09:52:40Z</time>
      </trkpt>
      <trkpt lat="42.872356" lon="1.477257">
        <ele>1458.9</ele>
        <time>2013-04-07T09:53:39Z</time>
      </trkpt>
      <trkpt lat="42.872286" lon="1.477137">
        <ele>1462.3</ele>
        <time>2013-04-07T09:54:02Z</time>
      </trkpt>
      <trkpt lat="42.872231" lon="1.477048">
        <ele>1464.7</ele>
        <time>2013-04-07T09:54:22Z</time>
      </trkpt>
      <trkpt lat="42.872190" lon="1.476950">
        <ele>1467.1</ele>
        <time>2013-04-07T09:54:38Z</time>
      </trkpt>
      <trkpt lat="42.872151" lon="1.476864">
        <ele>1469.0</ele>
        <time>2013-04-07T09:54:51Z</time>
      </trkpt>
      <trkpt lat="42.872106" lon="1.476785">
        <ele>1471.9</ele>
        <time>2013-04-07T09:55:08Z</time>
      </trkpt>
      <trkpt lat="42.872055" lon="1.476697">
        <ele>1474.8</ele>
        <time>2013-04-07T09:55:27Z</time>
      </trkpt>
      <trkpt lat="42.871984" lon="1.476636">
        <ele>1478.2</ele>
        <time>2013-04-07T09:55:47Z</time>
      </trkpt>
      <trkpt lat="42.871933" lon="1.476528">
        <ele>1480.6</ele>
        <time>2013-04-07T09:56:06Z</time>
      </trkpt>
      <trkpt lat="42.871888" lon="1.476447">
        <ele>1482.5</ele>
        <time>2013-04-07T09:56:24Z</time>
      </trkpt>
      <trkpt lat="42.871852" lon="1.476332">
        <ele>1485.8</ele>
        <time>2013-04-07T09:56:45Z</time>
      </trkpt>
      <trkpt lat="42.871810" lon="1.476226">
        <ele>1489.7</ele>
        <time>2013-04-07T09:57:04Z</time>
      </trkpt>
      <trkpt lat="42.871759" lon="1.476136">
        <ele>1491.6</ele>
        <time>2013-04-07T09:57:34Z</time>
      </trkpt>
      <trkpt lat="42.871699" lon="1.476122">
        <ele>1494.0</ele>
        <time>2013-04-07T09:57:52Z</time>
      </trkpt>
      <trkpt lat="42.871687" lon="1.475990">
        <ele>1495.5</ele>
        <time>2013-04-07T09:58:08Z</time>
      </trkpt>
      <trkpt lat="42.871701" lon="1.475904">
        <ele>1496.9</ele>
        <time>2013-04-07T09:58:34Z</time>
      </trkpt>
      <trkpt lat="42.871685" lon="1.475885">
        <ele>1496.4</ele>
        <time>2013-04-07T10:01:53Z</time>
      </trkpt>
      <trkpt lat="42.871696" lon="1.475942">
        <ele>1495.5</ele>
        <time>2013-04-07T10:04:08Z</time>
      </trkpt>
      <trkpt lat="42.871653" lon="1.475862">
        <ele>1496.9</ele>
        <time>2013-04-07T10:06:22Z</time>
      </trkpt>
      <trkpt lat="42.871585" lon="1.475798">
        <ele>1498.3</ele>
        <time>2013-04-07T10:06:35Z</time>
      </trkpt>
      <trkpt lat="42.871514" lon="1.475732">
        <ele>1499.3</ele>
        <time>2013-04-07T10:06:51Z</time>
      </trkpt>
      <trkpt lat="42.871455" lon="1.475655">
        <ele>1501.2</ele>
        <time>2013-04-07T10:07:07Z</time>
      </trkpt>
      <trkpt lat="42.871391" lon="1.475557">
        <ele>1503.2</ele>
        <time>2013-04-07T10:07:24Z</time>
      </trkpt>
      <trkpt lat="42.871341" lon="1.475461">
        <ele>1505.1</ele>
        <time>2013-04-07T10:07:38Z</time>
      </trkpt>
      <trkpt lat="42.871286" lon="1.475350">
        <ele>1507.0</ele>
        <time>2013-04-07T10:07:53Z</time>
      </trkpt>
      <trkpt lat="42.871246" lon="1.475249">
        <ele>1508.4</ele>
        <time>2013-04-07T10:08:10Z</time>
      </trkpt>
      <trkpt lat="42.871181" lon="1.475155">
        <ele>1511.8</ele>
        <time>2013-04-07T10:08:32Z</time>
      </trkpt>
      <trkpt lat="42.871138" lon="1.475050">
        <ele>1513.2</ele>
        <time>2013-04-07T10:08:46Z</time>
      </trkpt>
      <trkpt lat="42.871097" lon="1.474944">
        <ele>1515.2</ele>
        <time>2013-04-07T10:08:58Z</time>
      </trkpt>
      <trkpt lat="42.871076" lon="1.474826">
        <ele>1515.7</ele>
        <time>2013-04-07T10:09:11Z</time>
      </trkpt>
      <trkpt lat="42.871040" lon="1.474762">
        <ele>1518.1</ele>
        <time>2013-04-07T10:10:22Z</time>
      </trkpt>
      <trkpt lat="42.870993" lon="1.474641">
        <ele>1520.0</ele>
        <time>2013-04-07T10:10:34Z</time>
      </trkpt>
      <trkpt lat="42.870963" lon="1.474526">
        <ele>1522.4</ele>
        <time>2013-04-07T10:10:48Z</time>
      </trkpt>
      <trkpt lat="42.870922" lon="1.474427">
        <ele>1524.8</ele>
        <time>2013-04-07T10:11:00Z</time>
      </trkpt>
      <trkpt lat="42.870900" lon="1.474301">
        <ele>1525.8</ele>
        <time>2013-04-07T10:11:11Z</time>
      </trkpt>
      <trkpt lat="42.870918" lon="1.474182">
        <ele>1525.3</ele>
        <time>2013-04-07T10:11:48Z</time>
      </trkpt>
      <trkpt lat="42.870875" lon="1.474078">
        <ele>1524.8</ele>
        <time>2013-04-07T10:12:54Z</time>
      </trkpt>
      <trkpt lat="42.870818" lon="1.473982">
        <ele>1523.8</ele>
        <time>2013-04-07T10:13:04Z</time>
      </trkpt>
      <trkpt lat="42.870788" lon="1.473857">
        <ele>1522.9</ele>
        <time>2013-04-07T10:13:15Z</time>
      </trkpt>
      <trkpt lat="42.870764" lon="1.473726">
        <ele>1523.3</ele>
        <time>2013-04-07T10:13:26Z</time>
      </trkpt>
      <trkpt lat="42.870740" lon="1.473602">
        <ele>1524.8</ele>
        <time>2013-04-07T10:13:37Z</time>
      </trkpt>
      <trkpt lat="42.870737" lon="1.473467">
        <ele>1525.3</ele>
        <time>2013-04-07T10:13:48Z</time>
      </trkpt>
      <trkpt lat="42.870709" lon="1.473353">
        <ele>1525.8</ele>
        <time>2013-04-07T10:14:00Z</time>
      </trkpt>
      <trkpt lat="42.870678" lon="1.473267">
        <ele>1526.7</ele>
        <time>2013-04-07T10:14:20Z</time>
      </trkpt>
      <trkpt lat="42.870628" lon="1.473179">
        <ele>1529.1</ele>
        <time>2013-04-07T10:14:39Z</time>
      </trkpt>
      <trkpt lat="42.870557" lon="1.473103">
        <ele>1531.5</ele>
        <time>2013-04-07T10:14:59Z</time>
      </trkpt>
      <trkpt lat="42.870505" lon="1.473020">
        <ele>1534.4</ele>
        <time>2013-04-07T10:15:36Z</time>
      </trkpt>
      <trkpt lat="42.870444" lon="1.472977">
        <ele>1537.3</ele>
        <time>2013-04-07T10:15:56Z</time>
      </trkpt>
      <trkpt lat="42.870404" lon="1.472883">
        <ele>1540.2</ele>
        <time>2013-04-07T10:16:16Z</time>
      </trkpt>
      <trkpt lat="42.870348" lon="1.472825">
        <ele>1544.0</ele>
        <time>2013-04-07T10:16:42Z</time>
      </trkpt>
      <trkpt lat="42.870305" lon="1.472752">
        <ele>1547.4</ele>
        <time>2013-04-07T10:17:14Z</time>
      </trkpt>
      <trkpt lat="42.870255" lon="1.472698">
        <ele>1550.3</ele>
        <time>2013-04-07T10:17:57Z</time>
      </trkpt>
      <trkpt lat="42.870246" lon="1.472573">
        <ele>1552.7</ele>
        <time>2013-04-07T10:18:13Z</time>
      </trkpt>
      <trkpt lat="42.870197" lon="1.472557">
        <ele>1555.1</ele>
        <time>2013-04-07T10:18:28Z</time>
      </trkpt>
      <trkpt lat="42.870178" lon="1.472552">
        <ele>1557.0</ele>
        <time>2013-04-07T10:18:46Z</time>
      </trkpt>
      <trkpt lat="42.870120" lon="1.472469">
        <ele>1561.3</ele>
        <time>2013-04-07T10:19:08Z</time>
      </trkpt>
      <trkpt lat="42.870051" lon="1.472531">
        <ele>1562.8</ele>
        <time>2013-04-07T10:19:27Z</time>
      </trkpt>
      <trkpt lat="42.869990" lon="1.472512">
        <ele>1565.2</ele>
        <time>2013-04-07T10:19:43Z</time>
      </trkpt>
      <trkpt lat="42.869983" lon="1.472423">
        <ele>1567.6</ele>
        <time>2013-04-07T10:20:00Z</time>
      </trkpt>
      <trkpt lat="42.869939" lon="1.472373">
        <ele>1570.9</ele>
        <time>2013-04-07T10:20:21Z</time>
      </trkpt>
      <trkpt lat="42.869906" lon="1.472283">
        <ele>1573.8</ele>
        <time>2013-04-07T10:20:44Z</time>
      </trkpt>
      <trkpt lat="42.869850" lon="1.472263">
        <ele>1577.2</ele>
        <time>2013-04-07T10:21:05Z</time>
      </trkpt>
      <trkpt lat="42.869796" lon="1.472171">
        <ele>1578.1</ele>
        <time>2013-04-07T10:22:43Z</time>
      </trkpt>
      <trkpt lat="42.869789" lon="1.472071">
        <ele>1579.6</ele>
        <time>2013-04-07T10:22:56Z</time>
      </trkpt>
      <trkpt lat="42.869736" lon="1.471960">
        <ele>1581.0</ele>
        <time>2013-04-07T10:23:10Z</time>
      </trkpt>
      <trkpt lat="42.869684" lon="1.471855">
        <ele>1583.9</ele>
        <time>2013-04-07T10:23:30Z</time>
      </trkpt>
      <trkpt lat="42.869606" lon="1.471796">
        <ele>1586.3</ele>
        <time>2013-04-07T10:23:48Z</time>
      </trkpt>
      <trkpt lat="42.869545" lon="1.471717">
        <ele>1588.7</ele>
        <time>2013-04-07T10:24:06Z</time>
      </trkpt>
      <trkpt lat="42.869489" lon="1.471621">
        <ele>1591.1</ele>
        <time>2013-04-07T10:24:23Z</time>
      </trkpt>
      <trkpt lat="42.869434" lon="1.471568">
        <ele>1594.0</ele>
        <time>2013-04-07T10:24:39Z</time>
      </trkpt>
      <trkpt lat="42.869410" lon="1.471468">
        <ele>1595.9</ele>
        <time>2013-04-07T10:24:53Z</time>
      </trkpt>
      <trkpt lat="42.869365" lon="1.471406">
        <ele>1599.8</ele>
        <time>2013-04-07T10:25:16Z</time>
      </trkpt>
      <trkpt lat="42.869280" lon="1.471287">
        <ele>1604.1</ele>
        <time>2013-04-07T10:25:40Z</time>
      </trkpt>
      <trkpt lat="42.869218" lon="1.471189">
        <ele>1607.5</ele>
        <time>2013-04-07T10:26:03Z</time>
      </trkpt>
      <trkpt lat="42.869167" lon="1.471087">
        <ele>1609.9</ele>
        <time>2013-04-07T10:26:18Z</time>
      </trkpt>
      <trkpt lat="42.869089" lon="1.471030">
        <ele>1613.2</ele>
        <time>2013-04-07T10:26:39Z</time>
      </trkpt>
      <trkpt lat="42.869011" lon="1.470917">
        <ele>1617.1</ele>
        <time>2013-04-07T10:27:01Z</time>
      </trkpt>
      <trkpt lat="42.868926" lon="1.470808">
        <ele>1621.4</ele>
        <time>2013-04-07T10:27:27Z</time>
      </trkpt>
      <trkpt lat="42.868898" lon="1.470805">
        <ele>1624.3</ele>
        <time>2013-04-07T10:29:57Z</time>
      </trkpt>
      <trkpt lat="42.868823" lon="1.470767">
        <ele>1625.7</ele>
        <time>2013-04-07T10:30:36Z</time>
      </trkpt>
      <trkpt lat="42.868736" lon="1.470799">
        <ele>1627.2</ele>
        <time>2013-04-07T10:30:50Z</time>
      </trkpt>
      <trkpt lat="42.868673" lon="1.470752">
        <ele>1630.5</ele>
        <time>2013-04-07T10:31:13Z</time>
      </trkpt>
      <trkpt lat="42.868588" lon="1.470676">
        <ele>1635.3</ele>
        <time>2013-04-07T10:31:39Z</time>
      </trkpt>
      <trkpt lat="42.868524" lon="1.470599">
        <ele>1641.6</ele>
        <time>2013-04-07T10:32:11Z</time>
      </trkpt>
      <trkpt lat="42.868492" lon="1.470528">
        <ele>1645.9</ele>
        <time>2013-04-07T10:32:33Z</time>
      </trkpt>
      <trkpt lat="42.868381" lon="1.470447">
        <ele>1650.2</ele>
        <time>2013-04-07T10:32:58Z</time>
      </trkpt>
      <trkpt lat="42.868308" lon="1.470468">
        <ele>1653.6</ele>
        <time>2013-04-07T10:33:16Z</time>
      </trkpt>
      <trkpt lat="42.868271" lon="1.470439">
        <ele>1657.9</ele>
        <time>2013-04-07T10:33:38Z</time>
      </trkpt>
      <trkpt lat="42.868239" lon="1.470408">
        <ele>1661.8</ele>
        <time>2013-04-07T10:34:34Z</time>
      </trkpt>
      <trkpt lat="42.868149" lon="1.470437">
        <ele>1664.2</ele>
        <time>2013-04-07T10:34:50Z</time>
      </trkpt>
      <trkpt lat="42.868062" lon="1.470397">
        <ele>1667.1</ele>
        <time>2013-04-07T10:35:07Z</time>
      </trkpt>
      <trkpt lat="42.867983" lon="1.470363">
        <ele>1669.0</ele>
        <time>2013-04-07T10:35:24Z</time>
      </trkpt>
      <trkpt lat="42.867892" lon="1.470364">
        <ele>1672.8</ele>
        <time>2013-04-07T10:35:44Z</time>
      </trkpt>
      <trkpt lat="42.867792" lon="1.470366">
        <ele>1674.3</ele>
        <time>2013-04-07T10:35:58Z</time>
      </trkpt>
      <trkpt lat="42.867697" lon="1.470376">
        <ele>1675.7</ele>
        <time>2013-04-07T10:36:12Z</time>
      </trkpt>
      <trkpt lat="42.867606" lon="1.470302">
        <ele>1677.2</ele>
        <time>2013-04-07T10:36:31Z</time>
      </trkpt>
      <trkpt lat="42.867540" lon="1.470244">
        <ele>1679.1</ele>
        <time>2013-04-07T10:36:49Z</time>
      </trkpt>
      <trkpt lat="42.867456" lon="1.470262">
        <ele>1683.9</ele>
        <time>2013-04-07T10:37:13Z</time>
      </trkpt>
      <trkpt lat="42.867356" lon="1.470265">
        <ele>1687.2</ele>
        <time>2013-04-07T10:37:31Z</time>
      </trkpt>
      <trkpt lat="42.867271" lon="1.470244">
        <ele>1688.7</ele>
        <time>2013-04-07T10:37:44Z</time>
      </trkpt>
      <trkpt lat="42.867186" lon="1.470218">
        <ele>1689.2</ele>
        <time>2013-04-07T10:37:56Z</time>
      </trkpt>
      <trkpt lat="42.867132" lon="1.470210">
        <ele>1690.6</ele>
        <time>2013-04-07T10:40:42Z</time>
      </trkpt>
      <trkpt lat="42.867035" lon="1.470169">
        <ele>1690.1</ele>
        <time>2013-04-07T10:41:00Z</time>
      </trkpt>
      <trkpt lat="42.866945" lon="1.470142">
        <ele>1690.6</ele>
        <time>2013-04-07T10:41:11Z</time>
      </trkpt>
      <trkpt lat="42.866855" lon="1.470123">
        <ele>1692.1</ele>
        <time>2013-04-07T10:41:23Z</time>
      </trkpt>
      <trkpt lat="42.866764" lon="1.470121">
        <ele>1694.0</ele>
        <time>2013-04-07T10:41:37Z</time>
      </trkpt>
      <trkpt lat="42.866669" lon="1.470104">
        <ele>1694.5</ele>
        <time>2013-04-07T10:41:50Z</time>
      </trkpt>
      <trkpt lat="42.866578" lon="1.470122">
        <ele>1696.9</ele>
        <time>2013-04-07T10:42:06Z</time>
      </trkpt>
      <trkpt lat="42.866487" lon="1.470111">
        <ele>1698.3</ele>
        <time>2013-04-07T10:42:19Z</time>
      </trkpt>
      <trkpt lat="42.866399" lon="1.470075">
        <ele>1699.3</ele>
        <time>2013-04-07T10:42:31Z</time>
      </trkpt>
      <trkpt lat="42.866313" lon="1.470041">
        <ele>1701.7</ele>
        <time>2013-04-07T10:42:47Z</time>
      </trkpt>
      <trkpt lat="42.866221" lon="1.469995">
        <ele>1703.1</ele>
        <time>2013-04-07T10:43:00Z</time>
      </trkpt>
      <trkpt lat="42.866141" lon="1.469914">
        <ele>1704.1</ele>
        <time>2013-04-07T10:43:13Z</time>
      </trkpt>
      <trkpt lat="42.866070" lon="1.469841">
        <ele>1705.5</ele>
        <time>2013-04-07T10:43:26Z</time>
      </trkpt>
      <trkpt lat="42.866000" lon="1.469766">
        <ele>1706.0</ele>
        <time>2013-04-07T10:43:38Z</time>
      </trkpt>
      <trkpt lat="42.865939" lon="1.469701">
        <ele>1707.0</ele>
        <time>2013-04-07T10:43:51Z</time>
      </trkpt>
      <trkpt lat="42.865861" lon="1.469641">
        <ele>1706.0</ele>
        <time>2013-04-07T10:44:05Z</time>
      </trkpt>
      <trkpt lat="42.865785" lon="1.469572">
        <ele>1706.5</ele>
        <time>2013-04-07T10:44:19Z</time>
      </trkpt>
      <trkpt lat="42.865716" lon="1.469488">
        <ele>1707.0</ele>
        <time>2013-04-07T10:44:45Z</time>
      </trkpt>
      <trkpt lat="42.865637" lon="1.469430">
        <ele>1707.9</ele>
        <time>2013-04-07T10:44:59Z</time>
      </trkpt>
      <trkpt lat="42.865558" lon="1.469395">
        <ele>1708.4</ele>
        <time>2013-04-07T10:45:10Z</time>
      </trkpt>
      <trkpt lat="42.865478" lon="1.469355">
        <ele>1708.9</ele>
        <time>2013-04-07T10:45:22Z</time>
      </trkpt>
      <trkpt lat="42.865386" lon="1.469334">
        <ele>1709.8</ele>
        <time>2013-04-07T10:45:34Z</time>
      </trkpt>
      <trkpt lat="42.865293" lon="1.469319">
        <ele>1710.3</ele>
        <time>2013-04-07T10:45:45Z</time>
      </trkpt>
      <trkpt lat="42.865183" lon="1.469323">
        <ele>1711.3</ele>
        <time>2013-04-07T10:45:58Z</time>
      </trkpt>
      <trkpt lat="42.865093" lon="1.469326">
        <ele>1711.8</ele>
        <time>2013-04-07T10:46:09Z</time>
      </trkpt>
      <trkpt lat="42.865000" lon="1.469358">
        <ele>1711.8</ele>
        <time>2013-04-07T10:46:20Z</time>
      </trkpt>
      <trkpt lat="42.864907" lon="1.469456">
        <ele>1712.2</ele>
        <time>2013-04-07T10:47:04Z</time>
      </trkpt>
      <trkpt lat="42.864782" lon="1.469450">
        <ele>1712.2</ele>
        <time>2013-04-07T10:47:18Z</time>
      </trkpt>
      <trkpt lat="42.864685" lon="1.469472">
        <ele>1711.8</ele>
        <time>2013-04-07T10:47:27Z</time>
      </trkpt>
      <trkpt lat="42.864589" lon="1.469485">
        <ele>1711.8</ele>
        <time>2013-04-07T10:47:36Z</time>
      </trkpt>
      <trkpt lat="42.864511" lon="1.469508">
        <ele>1711.3</ele>
        <time>2013-04-07T10:47:45Z</time>
      </trkpt>
      <trkpt lat="42.864433" lon="1.469557">
        <ele>1711.3</ele>
        <time>2013-04-07T10:47:57Z</time>
      </trkpt>
      <trkpt lat="42.864374" lon="1.469587">
        <ele>1711.3</ele>
        <time>2013-04-07T10:48:07Z</time>
      </trkpt>
      <trkpt lat="42.864304" lon="1.469628">
        <ele>1711.3</ele>
        <time>2013-04-07T10:48:19Z</time>
      </trkpt>
      <trkpt lat="42.864205" lon="1.469680">
        <ele>1711.3</ele>
        <time>2013-04-07T10:48:31Z</time>
      </trkpt>
      <trkpt lat="42.864112" lon="1.469719">
        <ele>1711.3</ele>
        <time>2013-04-07T10:48:41Z</time>
      </trkpt>
      <trkpt lat="42.864077" lon="1.469742">
        <ele>1711.8</ele>
        <time>2013-04-07T10:48:53Z</time>
      </trkpt>
      <trkpt lat="42.863984" lon="1.469785">
        <ele>1712.2</ele>
        <time>2013-04-07T10:49:05Z</time>
      </trkpt>
      <trkpt lat="42.863891" lon="1.469817">
        <ele>1712.7</ele>
        <time>2013-04-07T10:49:19Z</time>
      </trkpt>
      <trkpt lat="42.863789" lon="1.469821">
        <ele>1712.7</ele>
        <time>2013-04-07T10:49:30Z</time>
      </trkpt>
      <trkpt lat="42.863756" lon="1.469801">
        <ele>1712.7</ele>
        <time>2013-04-07T10:49:42Z</time>
      </trkpt>
      <trkpt lat="42.863678" lon="1.469796">
        <ele>1712.7</ele>
        <time>2013-04-07T10:49:53Z</time>
      </trkpt>
      <trkpt lat="42.863572" lon="1.469811">
        <ele>1712.7</ele>
        <time>2013-04-07T10:50:04Z</time>
      </trkpt>
      <trkpt lat="42.863541" lon="1.469791">
        <ele>1713.2</ele>
        <time>2013-04-07T10:50:15Z</time>
      </trkpt>
      <trkpt lat="42.863505" lon="1.469758">
        <ele>1712.7</ele>
        <time>2013-04-07T10:50:24Z</time>
      </trkpt>
      <trkpt lat="42.863429" lon="1.469704">
        <ele>1713.2</ele>
        <time>2013-04-07T10:50:35Z</time>
      </trkpt>
      <trkpt lat="42.863328" lon="1.469681">
        <ele>1712.7</ele>
        <time>2013-04-07T10:50:44Z</time>
      </trkpt>
      <trkpt lat="42.863185" lon="1.469653">
        <ele>1713.7</ele>
        <time>2013-04-07T10:50:55Z</time>
      </trkpt>
      <trkpt lat="42.863087" lon="1.469632">
        <ele>1713.7</ele>
        <time>2013-04-07T10:51:05Z</time>
      </trkpt>
      <trkpt lat="42.862963" lon="1.469612">
        <ele>1714.2</ele>
        <time>2013-04-07T10:51:20Z</time>
      </trkpt>
      <trkpt lat="42.862841" lon="1.469592">
        <ele>1714.7</ele>
        <time>2013-04-07T10:51:32Z</time>
      </trkpt>
      <trkpt lat="42.862739" lon="1.469533">
        <ele>1714.7</ele>
        <time>2013-04-07T10:51:45Z</time>
      </trkpt>
      <trkpt lat="42.862611" lon="1.469497">
        <ele>1715.6</ele>
        <time>2013-04-07T10:51:57Z</time>
      </trkpt>
      <trkpt lat="42.862505" lon="1.469440">
        <ele>1715.6</ele>
        <time>2013-04-07T10:52:10Z</time>
      </trkpt>
      <trkpt lat="42.862409" lon="1.469384">
        <ele>1716.1</ele>
        <time>2013-04-07T10:52:22Z</time>
      </trkpt>
      <trkpt lat="42.862298" lon="1.469371">
        <ele>1715.1</ele>
        <time>2013-04-07T10:52:34Z</time>
      </trkpt>
      <trkpt lat="42.862215" lon="1.469308">
        <ele>1714.7</ele>
        <time>2013-04-07T10:52:47Z</time>
      </trkpt>
      <trkpt lat="42.862142" lon="1.469243">
        <ele>1715.1</ele>
        <time>2013-04-07T10:52:58Z</time>
      </trkpt>
      <trkpt lat="42.862042" lon="1.469174">
        <ele>1715.6</ele>
        <time>2013-04-07T10:53:09Z</time>
      </trkpt>
      <trkpt lat="42.861963" lon="1.469105">
        <ele>1715.6</ele>
        <time>2013-04-07T10:53:20Z</time>
        <cmt>Col du pla de Pesse</cmt>
      </trkpt>
      <trkpt lat="42.861882" lon="1.469044">
        <ele>1715.1</ele>
        <time>2013-04-07T10:53:31Z</time>
      </trkpt>
      <trkpt lat="42.861802" lon="1.468981">
        <ele>1715.6</ele>
        <time>2013-04-07T10:53:43Z</time>
      </trkpt>
      <trkpt lat="42.861730" lon="1.468888">
        <ele>1715.6</ele>
        <time>2013-04-07T10:53:53Z</time>
      </trkpt>
      <trkpt lat="42.861668" lon="1.468793">
        <ele>1716.1</ele>
        <time>2013-04-07T10:54:04Z</time>
      </trkpt>
      <trkpt lat="42.861610" lon="1.468680">
        <ele>1717.1</ele>
        <time>2013-04-07T10:54:14Z</time>
      </trkpt>
      <trkpt lat="42.861547" lon="1.468599">
        <ele>1717.5</ele>
        <time>2013-04-07T10:54:24Z</time>
      </trkpt>
      <trkpt lat="42.861508" lon="1.468489">
        <ele>1717.5</ele>
        <time>2013-04-07T10:54:35Z</time>
      </trkpt>
      <trkpt lat="42.861445" lon="1.468386">
        <ele>1719.0</ele>
        <time>2013-04-07T10:54:48Z</time>
      </trkpt>
      <trkpt lat="42.861392" lon="1.468279">
        <ele>1720.4</ele>
        <time>2013-04-07T10:55:00Z</time>
      </trkpt>
      <trkpt lat="42.861339" lon="1.468179">
        <ele>1720.9</ele>
        <time>2013-04-07T10:55:12Z</time>
      </trkpt>
      <trkpt lat="42.861258" lon="1.468150">
        <ele>1721.9</ele>
        <time>2013-04-07T10:56:18Z</time>
      </trkpt>
      <trkpt lat="42.861182" lon="1.468085">
        <ele>1722.8</ele>
        <time>2013-04-07T10:56:31Z</time>
      </trkpt>
      <trkpt lat="42.861118" lon="1.467973">
        <ele>1723.3</ele>
        <time>2013-04-07T10:56:45Z</time>
      </trkpt>
      <trkpt lat="42.861083" lon="1.467868">
        <ele>1724.7</ele>
        <time>2013-04-07T10:56:58Z</time>
      </trkpt>
      <trkpt lat="42.861031" lon="1.467765">
        <ele>1726.2</ele>
        <time>2013-04-07T10:57:12Z</time>
      </trkpt>
      <trkpt lat="42.861002" lon="1.467642">
        <ele>1727.2</ele>
        <time>2013-04-07T10:57:27Z</time>
      </trkpt>
      <trkpt lat="42.860955" lon="1.467548">
        <ele>1728.6</ele>
        <time>2013-04-07T10:57:43Z</time>
      </trkpt>
      <trkpt lat="42.860922" lon="1.467447">
        <ele>1730.5</ele>
        <time>2013-04-07T10:57:56Z</time>
      </trkpt>
      <trkpt lat="42.860876" lon="1.467338">
        <ele>1731.0</ele>
        <time>2013-04-07T10:58:08Z</time>
      </trkpt>
      <trkpt lat="42.860825" lon="1.467244">
        <ele>1731.9</ele>
        <time>2013-04-07T10:58:21Z</time>
      </trkpt>
      <trkpt lat="42.860775" lon="1.467120">
        <ele>1732.4</ele>
        <time>2013-04-07T10:58:34Z</time>
      </trkpt>
      <trkpt lat="42.860777" lon="1.467022">
        <ele>1731.9</ele>
        <time>2013-04-07T11:00:46Z</time>
      </trkpt>
      <trkpt lat="42.860739" lon="1.466895">
        <ele>1732.4</ele>
        <time>2013-04-07T11:00:56Z</time>
      </trkpt>
      <trkpt lat="42.860699" lon="1.466798">
        <ele>1732.4</ele>
        <time>2013-04-07T11:01:16Z</time>
      </trkpt>
      <trkpt lat="42.860656" lon="1.466695">
        <ele>1733.4</ele>
        <time>2013-04-07T11:01:26Z</time>
      </trkpt>
      <trkpt lat="42.860603" lon="1.466589">
        <ele>1733.4</ele>
        <time>2013-04-07T11:01:36Z</time>
      </trkpt>
      <trkpt lat="42.860545" lon="1.466494">
        <ele>1734.4</ele>
        <time>2013-04-07T11:01:46Z</time>
      </trkpt>
      <trkpt lat="42.860470" lon="1.466409">
        <ele>1734.8</ele>
        <time>2013-04-07T11:01:57Z</time>
      </trkpt>
      <trkpt lat="42.860397" lon="1.466345">
        <ele>1735.3</ele>
        <time>2013-04-07T11:02:07Z</time>
      </trkpt>
      <trkpt lat="42.860330" lon="1.466257">
        <ele>1736.3</ele>
        <time>2013-04-07T11:02:18Z</time>
      </trkpt>
      <trkpt lat="42.860287" lon="1.466154">
        <ele>1737.7</ele>
        <time>2013-04-07T11:02:30Z</time>
      </trkpt>
      <trkpt lat="42.860242" lon="1.466052">
        <ele>1738.7</ele>
        <time>2013-04-07T11:02:42Z</time>
      </trkpt>
      <trkpt lat="42.860181" lon="1.465963">
        <ele>1740.1</ele>
        <time>2013-04-07T11:02:55Z</time>
      </trkpt>
      <trkpt lat="42.860120" lon="1.465881">
        <ele>1741.6</ele>
        <time>2013-04-07T11:03:07Z</time>
      </trkpt>
      <trkpt lat="42.860065" lon="1.465791">
        <ele>1743.0</ele>
        <time>2013-04-07T11:03:21Z</time>
      </trkpt>
      <trkpt lat="42.859986" lon="1.465732">
        <ele>1745.9</ele>
        <time>2013-04-07T11:03:39Z</time>
      </trkpt>
      <trkpt lat="42.859915" lon="1.465654">
        <ele>1748.3</ele>
        <time>2013-04-07T11:03:54Z</time>
      </trkpt>
      <trkpt lat="42.859871" lon="1.465544">
        <ele>1750.7</ele>
        <time>2013-04-07T11:04:14Z</time>
      </trkpt>
      <trkpt lat="42.859807" lon="1.465478">
        <ele>1752.1</ele>
        <time>2013-04-07T11:04:31Z</time>
      </trkpt>
      <trkpt lat="42.859751" lon="1.465373">
        <ele>1755.0</ele>
        <time>2013-04-07T11:04:45Z</time>
      </trkpt>
      <trkpt lat="42.859686" lon="1.465307">
        <ele>1757.4</ele>
        <time>2013-04-07T11:05:02Z</time>
      </trkpt>
      <trkpt lat="42.859635" lon="1.465227">
        <ele>1760.3</ele>
        <time>2013-04-07T11:05:19Z</time>
      </trkpt>
      <trkpt lat="42.859553" lon="1.465190">
        <ele>1762.2</ele>
        <time>2013-04-07T11:05:34Z</time>
      </trkpt>
      <trkpt lat="42.859500" lon="1.465104">
        <ele>1763.7</ele>
        <time>2013-04-07T11:05:55Z</time>
      </trkpt>
      <trkpt lat="42.859427" lon="1.465066">
        <ele>1766.6</ele>
        <time>2013-04-07T11:06:16Z</time>
      </trkpt>
      <trkpt lat="42.859348" lon="1.465038">
        <ele>1769.4</ele>
        <time>2013-04-07T11:06:33Z</time>
      </trkpt>
      <trkpt lat="42.859267" lon="1.465010">
        <ele>1771.4</ele>
        <time>2013-04-07T11:06:47Z</time>
      </trkpt>
      <trkpt lat="42.859186" lon="1.464988">
        <ele>1773.3</ele>
        <time>2013-04-07T11:07:01Z</time>
      </trkpt>
      <trkpt lat="42.859111" lon="1.464948">
        <ele>1776.7</ele>
        <time>2013-04-07T11:07:18Z</time>
      </trkpt>
      <trkpt lat="42.859028" lon="1.464922">
        <ele>1779.5</ele>
        <time>2013-04-07T11:07:35Z</time>
      </trkpt>
      <trkpt lat="42.858964" lon="1.464866">
        <ele>1781.9</ele>
        <time>2013-04-07T11:07:54Z</time>
      </trkpt>
      <trkpt lat="42.858885" lon="1.464817">
        <ele>1783.4</ele>
        <time>2013-04-07T11:08:53Z</time>
      </trkpt>
      <trkpt lat="42.858790" lon="1.464790">
        <ele>1784.8</ele>
        <time>2013-04-07T11:09:04Z</time>
      </trkpt>
      <trkpt lat="42.858704" lon="1.464748">
        <ele>1786.3</ele>
        <time>2013-04-07T11:09:16Z</time>
      </trkpt>
      <trkpt lat="42.858627" lon="1.464704">
        <ele>1788.7</ele>
        <time>2013-04-07T11:09:29Z</time>
      </trkpt>
      <trkpt lat="42.858538" lon="1.464651">
        <ele>1789.6</ele>
        <time>2013-04-07T11:09:42Z</time>
      </trkpt>
      <trkpt lat="42.858452" lon="1.464602">
        <ele>1791.6</ele>
        <time>2013-04-07T11:09:55Z</time>
      </trkpt>
      <trkpt lat="42.858367" lon="1.464534">
        <ele>1793.0</ele>
        <time>2013-04-07T11:10:10Z</time>
      </trkpt>
      <trkpt lat="42.858273" lon="1.464507">
        <ele>1794.4</ele>
        <time>2013-04-07T11:10:25Z</time>
      </trkpt>
      <trkpt lat="42.858187" lon="1.464460">
        <ele>1796.4</ele>
        <time>2013-04-07T11:10:38Z</time>
      </trkpt>
      <trkpt lat="42.858101" lon="1.464423">
        <ele>1798.8</ele>
        <time>2013-04-07T11:10:53Z</time>
      </trkpt>
      <trkpt lat="42.858016" lon="1.464382">
        <ele>1800.7</ele>
        <time>2013-04-07T11:11:08Z</time>
      </trkpt>
      <trkpt lat="42.857942" lon="1.464317">
        <ele>1803.1</ele>
        <time>2013-04-07T11:11:22Z</time>
      </trkpt>
      <trkpt lat="42.857864" lon="1.464246">
        <ele>1805.0</ele>
        <time>2013-04-07T11:11:37Z</time>
      </trkpt>
      <trkpt lat="42.857780" lon="1.464191">
        <ele>1807.4</ele>
        <time>2013-04-07T11:11:55Z</time>
      </trkpt>
      <trkpt lat="42.857701" lon="1.464158">
        <ele>1810.3</ele>
        <time>2013-04-07T11:12:13Z</time>
      </trkpt>
      <trkpt lat="42.857618" lon="1.464125">
        <ele>1814.2</ele>
        <time>2013-04-07T11:12:38Z</time>
      </trkpt>
      <trkpt lat="42.857544" lon="1.464099">
        <ele>1817.0</ele>
        <time>2013-04-07T11:12:55Z</time>
      </trkpt>
      <trkpt lat="42.857463" lon="1.464057">
        <ele>1819.9</ele>
        <time>2013-04-07T11:13:14Z</time>
      </trkpt>
      <trkpt lat="42.857384" lon="1.464094">
        <ele>1823.3</ele>
        <time>2013-04-07T11:13:29Z</time>
      </trkpt>
      <trkpt lat="42.857315" lon="1.464071">
        <ele>1826.6</ele>
        <time>2013-04-07T11:13:47Z</time>
      </trkpt>
      <trkpt lat="42.857257" lon="1.463995">
        <ele>1829.5</ele>
        <time>2013-04-07T11:14:07Z</time>
      </trkpt>
      <trkpt lat="42.857164" lon="1.463966">
        <ele>1832.4</ele>
        <time>2013-04-07T11:14:25Z</time>
      </trkpt>
      <trkpt lat="42.857078" lon="1.463922">
        <ele>1835.8</ele>
        <time>2013-04-07T11:14:42Z</time>
      </trkpt>
      <trkpt lat="42.856977" lon="1.463906">
        <ele>1839.1</ele>
        <time>2013-04-07T11:14:59Z</time>
      </trkpt>
      <trkpt lat="42.856919" lon="1.463968">
        <ele>1842.0</ele>
        <time>2013-04-07T11:15:19Z</time>
      </trkpt>
      <trkpt lat="42.856862" lon="1.463917">
        <ele>1846.3</ele>
        <time>2013-04-07T11:15:42Z</time>
      </trkpt>
      <trkpt lat="42.856788" lon="1.463958">
        <ele>1848.8</ele>
        <time>2013-04-07T11:16:00Z</time>
      </trkpt>
      <trkpt lat="42.856688" lon="1.463938">
        <ele>1852.6</ele>
        <time>2013-04-07T11:16:18Z</time>
      </trkpt>
      <trkpt lat="42.856608" lon="1.463940">
        <ele>1855.5</ele>
        <time>2013-04-07T11:16:36Z</time>
      </trkpt>
      <trkpt lat="42.856527" lon="1.463972">
        <ele>1858.4</ele>
        <time>2013-04-07T11:16:54Z</time>
      </trkpt>
      <trkpt lat="42.856461" lon="1.464029">
        <ele>1861.2</ele>
        <time>2013-04-07T11:17:13Z</time>
      </trkpt>
      <trkpt lat="42.856380" lon="1.464045">
        <ele>1865.1</ele>
        <time>2013-04-07T11:17:33Z</time>
      </trkpt>
      <trkpt lat="42.856298" lon="1.464055">
        <ele>1868.5</ele>
        <time>2013-04-07T11:17:50Z</time>
      </trkpt>
      <trkpt lat="42.856244" lon="1.464078">
        <ele>1871.3</ele>
        <time>2013-04-07T11:18:10Z</time>
      </trkpt>
      <trkpt lat="42.856159" lon="1.464005">
        <ele>1875.2</ele>
        <time>2013-04-07T11:18:30Z</time>
      </trkpt>
      <trkpt lat="42.856065" lon="1.463948">
        <ele>1879.5</ele>
        <time>2013-04-07T11:18:53Z</time>
      </trkpt>
      <trkpt lat="42.855978" lon="1.463905">
        <ele>1883.8</ele>
        <time>2013-04-07T11:19:13Z</time>
      </trkpt>
      <trkpt lat="42.855896" lon="1.463878">
        <ele>1887.7</ele>
        <time>2013-04-07T11:19:33Z</time>
      </trkpt>
      <trkpt lat="42.855873" lon="1.463883">
        <ele>1888.2</ele>
        <time>2013-04-07T11:31:43Z</time>
      </trkpt>
      <trkpt lat="42.855790" lon="1.463891">
        <ele>1890.1</ele>
        <time>2013-04-07T11:32:10Z</time>
      </trkpt>
      <trkpt lat="42.855695" lon="1.463883">
        <ele>1893.0</ele>
        <time>2013-04-07T11:32:37Z</time>
      </trkpt>
      <trkpt lat="42.855589" lon="1.463859">
        <ele>1896.3</ele>
        <time>2013-04-07T11:33:15Z</time>
      </trkpt>
      <trkpt lat="42.855506" lon="1.463852">
        <ele>1898.7</ele>
        <time>2013-04-07T11:33:28Z</time>
      </trkpt>
      <trkpt lat="42.855422" lon="1.463823">
        <ele>1901.6</ele>
        <time>2013-04-07T11:33:43Z</time>
      </trkpt>
      <trkpt lat="42.855344" lon="1.463771">
        <ele>1904.5</ele>
        <time>2013-04-07T11:33:58Z</time>
      </trkpt>
      <trkpt lat="42.855274" lon="1.463733">
        <ele>1907.4</ele>
        <time>2013-04-07T11:34:12Z</time>
      </trkpt>
      <trkpt lat="42.855216" lon="1.463676">
        <ele>1908.8</ele>
        <time>2013-04-07T11:35:00Z</time>
      </trkpt>
      <trkpt lat="42.855132" lon="1.463649">
        <ele>1909.8</ele>
        <time>2013-04-07T11:35:14Z</time>
      </trkpt>
      <trkpt lat="42.855027" lon="1.463651">
        <ele>1910.8</ele>
        <time>2013-04-07T11:35:25Z</time>
      </trkpt>
      <trkpt lat="42.854942" lon="1.463633">
        <ele>1912.2</ele>
        <time>2013-04-07T11:35:37Z</time>
      </trkpt>
      <trkpt lat="42.854870" lon="1.463597">
        <ele>1915.1</ele>
        <time>2013-04-07T11:35:54Z</time>
      </trkpt>
      <trkpt lat="42.854843" lon="1.463492">
        <ele>1918.4</ele>
        <time>2013-04-07T11:36:12Z</time>
      </trkpt>
      <trkpt lat="42.854817" lon="1.463372">
        <ele>1921.3</ele>
        <time>2013-04-07T11:36:30Z</time>
      </trkpt>
      <trkpt lat="42.854793" lon="1.463266">
        <ele>1924.2</ele>
        <time>2013-04-07T11:36:53Z</time>
      </trkpt>
      <trkpt lat="42.854783" lon="1.463130">
        <ele>1930.0</ele>
        <time>2013-04-07T11:37:29Z</time>
      </trkpt>
      <trkpt lat="42.854718" lon="1.463082">
        <ele>1930.9</ele>
        <time>2013-04-07T11:37:56Z</time>
      </trkpt>
      <trkpt lat="42.854655" lon="1.463025">
        <ele>1930.9</ele>
        <time>2013-04-07T11:38:36Z</time>
      </trkpt>
      <trkpt lat="42.854579" lon="1.462949">
        <ele>1930.9</ele>
        <time>2013-04-07T11:38:46Z</time>
      </trkpt>
      <trkpt lat="42.854503" lon="1.462875">
        <ele>1930.9</ele>
        <time>2013-04-07T11:38:56Z</time>
      </trkpt>
      <trkpt lat="42.854432" lon="1.462789">
        <ele>1931.9</ele>
        <time>2013-04-07T11:39:05Z</time>
      </trkpt>
      <trkpt lat="42.854377" lon="1.462673">
        <ele>1932.4</ele>
        <time>2013-04-07T11:39:20Z</time>
      </trkpt>
      <trkpt lat="42.854323" lon="1.462603">
        <ele>1935.3</ele>
        <time>2013-04-07T11:39:46Z</time>
      </trkpt>
      <trkpt lat="42.854278" lon="1.462498">
        <ele>1938.2</ele>
        <time>2013-04-07T11:40:24Z</time>
      </trkpt>
      <trkpt lat="42.854227" lon="1.462399">
        <ele>1941.5</ele>
        <time>2013-04-07T11:40:44Z</time>
      </trkpt>
      <trkpt lat="42.854177" lon="1.462302">
        <ele>1944.9</ele>
        <time>2013-04-07T11:41:01Z</time>
      </trkpt>
      <trkpt lat="42.854160" lon="1.462195">
        <ele>1948.7</ele>
        <time>2013-04-07T11:41:28Z</time>
      </trkpt>
      <trkpt lat="42.854103" lon="1.462099">
        <ele>1948.7</ele>
        <time>2013-04-07T11:41:40Z</time>
      </trkpt>
      <trkpt lat="42.854064" lon="1.461984">
        <ele>1949.2</ele>
        <time>2013-04-07T11:41:53Z</time>
      </trkpt>
      <trkpt lat="42.854041" lon="1.461890">
        <ele>1952.1</ele>
        <time>2013-04-07T11:42:23Z</time>
        <cmt>Cap de la Dosse</cmt>
      </trkpt>
      <trkpt lat="42.854063" lon="1.461895">
        <ele>1951.6</ele>
        <time>2013-04-07T11:45:13Z</time>
      </trkpt>
      <trkpt lat="42.854067" lon="1.461872">
        <ele>1947.3</ele>
        <time>2013-04-07T11:48:14Z</time>
      </trkpt>
      <trkpt lat="42.854050" lon="1.461878">
        <ele>1948.2</ele>
        <time>2013-04-07T12:24:07Z</time>
      </trkpt>
      <trkpt lat="42.854059" lon="1.461892">
        <ele>1948.7</ele>
        <time>2013-04-07T12:24:54Z</time>
      </trkpt>
      <trkpt lat="42.854077" lon="1.462010">
        <ele>1945.4</ele>
        <time>2013-04-07T12:25:03Z</time>
      </trkpt>
      <trkpt lat="42.854126" lon="1.462092">
        <ele>1944.4</ele>
        <time>2013-04-07T12:25:17Z</time>
      </trkpt>
      <trkpt lat="42.854176" lon="1.462198">
        <ele>1944.4</ele>
        <time>2013-04-07T12:25:30Z</time>
      </trkpt>
      <trkpt lat="42.854195" lon="1.462316">
        <ele>1939.6</ele>
        <time>2013-04-07T12:25:49Z</time>
      </trkpt>
      <trkpt lat="42.854258" lon="1.462413">
        <ele>1936.2</ele>
        <time>2013-04-07T12:26:05Z</time>
      </trkpt>
      <trkpt lat="42.854310" lon="1.462525">
        <ele>1932.4</ele>
        <time>2013-04-07T12:26:20Z</time>
      </trkpt>
      <trkpt lat="42.854367" lon="1.462613">
        <ele>1930.0</ele>
        <time>2013-04-07T12:26:31Z</time>
      </trkpt>
      <trkpt lat="42.854426" lon="1.462699">
        <ele>1927.6</ele>
        <time>2013-04-07T12:26:41Z</time>
      </trkpt>
      <trkpt lat="42.854488" lon="1.462793">
        <ele>1927.1</ele>
        <time>2013-04-07T12:26:53Z</time>
      </trkpt>
      <trkpt lat="42.854552" lon="1.462894">
        <ele>1926.6</ele>
        <time>2013-04-07T12:27:09Z</time>
      </trkpt>
      <trkpt lat="42.854627" lon="1.462982">
        <ele>1926.1</ele>
        <time>2013-04-07T12:27:21Z</time>
      </trkpt>
      <trkpt lat="42.854706" lon="1.463040">
        <ele>1926.1</ele>
        <time>2013-04-07T12:27:32Z</time>
      </trkpt>
      <trkpt lat="42.854780" lon="1.463109">
        <ele>1925.7</ele>
        <time>2013-04-07T12:27:42Z</time>
      </trkpt>
      <trkpt lat="42.854795" lon="1.463238">
        <ele>1921.3</ele>
        <time>2013-04-07T12:28:36Z</time>
      </trkpt>
      <trkpt lat="42.854832" lon="1.463337">
        <ele>1916.5</ele>
        <time>2013-04-07T12:30:14Z</time>
      </trkpt>
      <trkpt lat="42.854863" lon="1.463456">
        <ele>1914.1</ele>
        <time>2013-04-07T12:30:23Z</time>
      </trkpt>
      <trkpt lat="42.854901" lon="1.463555">
        <ele>1909.3</ele>
        <time>2013-04-07T12:30:31Z</time>
      </trkpt>
      <trkpt lat="42.854988" lon="1.463592">
        <ele>1905.5</ele>
        <time>2013-04-07T12:30:40Z</time>
      </trkpt>
      <trkpt lat="42.855083" lon="1.463611">
        <ele>1903.6</ele>
        <time>2013-04-07T12:30:48Z</time>
      </trkpt>
      <trkpt lat="42.855189" lon="1.463632">
        <ele>1903.1</ele>
        <time>2013-04-07T12:30:56Z</time>
      </trkpt>
      <trkpt lat="42.855284" lon="1.463677">
        <ele>1902.6</ele>
        <time>2013-04-07T12:31:04Z</time>
      </trkpt>
      <trkpt lat="42.855362" lon="1.463756">
        <ele>1899.2</ele>
        <time>2013-04-07T12:31:13Z</time>
      </trkpt>
      <trkpt lat="42.855454" lon="1.463792">
        <ele>1897.3</ele>
        <time>2013-04-07T12:31:22Z</time>
      </trkpt>
      <trkpt lat="42.855548" lon="1.463829">
        <ele>1893.0</ele>
        <time>2013-04-07T12:31:33Z</time>
      </trkpt>
      <trkpt lat="42.855648" lon="1.463847">
        <ele>1889.6</ele>
        <time>2013-04-07T12:31:43Z</time>
      </trkpt>
      <trkpt lat="42.855740" lon="1.463852">
        <ele>1886.2</ele>
        <time>2013-04-07T12:31:52Z</time>
      </trkpt>
      <trkpt lat="42.855836" lon="1.463870">
        <ele>1883.8</ele>
        <time>2013-04-07T12:32:01Z</time>
      </trkpt>
      <trkpt lat="42.855901" lon="1.463833">
        <ele>1881.0</ele>
        <time>2013-04-07T12:34:20Z</time>
      </trkpt>
      <trkpt lat="42.855930" lon="1.463886">
        <ele>1881.0</ele>
        <time>2013-04-07T12:37:00Z</time>
      </trkpt>
      <trkpt lat="42.855942" lon="1.463918">
        <ele>1879.5</ele>
        <time>2013-04-07T12:38:49Z</time>
      </trkpt>
      <trkpt lat="42.856011" lon="1.463996">
        <ele>1876.2</ele>
        <time>2013-04-07T12:38:59Z</time>
      </trkpt>
      <trkpt lat="42.856089" lon="1.464076">
        <ele>1871.3</ele>
        <time>2013-04-07T12:39:09Z</time>
      </trkpt>
      <trkpt lat="42.856157" lon="1.464141">
        <ele>1867.0</ele>
        <time>2013-04-07T12:39:19Z</time>
      </trkpt>
      <trkpt lat="42.856256" lon="1.464144">
        <ele>1863.2</ele>
        <time>2013-04-07T12:39:30Z</time>
      </trkpt>
      <trkpt lat="42.856339" lon="1.464116">
        <ele>1859.3</ele>
        <time>2013-04-07T12:39:40Z</time>
      </trkpt>
      <trkpt lat="42.856430" lon="1.464080">
        <ele>1856.4</ele>
        <time>2013-04-07T12:39:51Z</time>
      </trkpt>
      <trkpt lat="42.856525" lon="1.464056">
        <ele>1853.1</ele>
        <time>2013-04-07T12:40:02Z</time>
      </trkpt>
      <trkpt lat="42.856621" lon="1.464053">
        <ele>1847.8</ele>
        <time>2013-04-07T12:40:15Z</time>
      </trkpt>
      <trkpt lat="42.856719" lon="1.464072">
        <ele>1843.9</ele>
        <time>2013-04-07T12:40:27Z</time>
      </trkpt>
      <trkpt lat="42.856809" lon="1.464109">
        <ele>1840.6</ele>
        <time>2013-04-07T12:40:37Z</time>
      </trkpt>
      <trkpt lat="42.856894" lon="1.464154">
        <ele>1836.3</ele>
        <time>2013-04-07T12:40:49Z</time>
      </trkpt>
      <trkpt lat="42.856976" lon="1.464213">
        <ele>1831.9</ele>
        <time>2013-04-07T12:41:02Z</time>
      </trkpt>
      <trkpt lat="42.857056" lon="1.464301">
        <ele>1827.6</ele>
        <time>2013-04-07T12:41:15Z</time>
      </trkpt>
      <trkpt lat="42.857154" lon="1.464353">
        <ele>1823.3</ele>
        <time>2013-04-07T12:41:27Z</time>
      </trkpt>
      <trkpt lat="42.857229" lon="1.464420">
        <ele>1818.9</ele>
        <time>2013-04-07T12:41:39Z</time>
      </trkpt>
      <trkpt lat="42.857317" lon="1.464490">
        <ele>1814.2</ele>
        <time>2013-04-07T12:41:51Z</time>
      </trkpt>
      <trkpt lat="42.857381" lon="1.464567">
        <ele>1811.3</ele>
        <time>2013-04-07T12:42:15Z</time>
      </trkpt>
      <trkpt lat="42.857465" lon="1.464627">
        <ele>1808.9</ele>
        <time>2013-04-07T12:42:30Z</time>
      </trkpt>
      <trkpt lat="42.857534" lon="1.464700">
        <ele>1806.0</ele>
        <time>2013-04-07T12:42:40Z</time>
      </trkpt>
      <trkpt lat="42.857626" lon="1.464726">
        <ele>1802.6</ele>
        <time>2013-04-07T12:42:50Z</time>
      </trkpt>
      <trkpt lat="42.857717" lon="1.464757">
        <ele>1799.2</ele>
        <time>2013-04-07T12:43:22Z</time>
      </trkpt>
      <trkpt lat="42.857799" lon="1.464797">
        <ele>1795.9</ele>
        <time>2013-04-07T12:43:38Z</time>
      </trkpt>
      <trkpt lat="42.857889" lon="1.464814">
        <ele>1793.5</ele>
        <time>2013-04-07T12:43:52Z</time>
      </trkpt>
      <trkpt lat="42.857981" lon="1.464849">
        <ele>1791.1</ele>
        <time>2013-04-07T12:44:04Z</time>
      </trkpt>
      <trkpt lat="42.858084" lon="1.464863">
        <ele>1788.7</ele>
        <time>2013-04-07T12:44:14Z</time>
      </trkpt>
      <trkpt lat="42.858169" lon="1.464902">
        <ele>1786.3</ele>
        <time>2013-04-07T12:44:23Z</time>
      </trkpt>
      <trkpt lat="42.858262" lon="1.464928">
        <ele>1784.3</ele>
        <time>2013-04-07T12:44:34Z</time>
      </trkpt>
      <trkpt lat="42.858362" lon="1.464962">
        <ele>1781.9</ele>
        <time>2013-04-07T12:44:45Z</time>
      </trkpt>
      <trkpt lat="42.858453" lon="1.464999">
        <ele>1780.0</ele>
        <time>2013-04-07T12:44:55Z</time>
      </trkpt>
      <trkpt lat="42.858557" lon="1.465008">
        <ele>1778.6</ele>
        <time>2013-04-07T12:45:05Z</time>
      </trkpt>
      <trkpt lat="42.858660" lon="1.465003">
        <ele>1777.1</ele>
        <time>2013-04-07T12:45:16Z</time>
      </trkpt>
      <trkpt lat="42.858723" lon="1.465012">
        <ele>1775.2</ele>
        <time>2013-04-07T12:45:41Z</time>
      </trkpt>
      <trkpt lat="42.858806" lon="1.465000">
        <ele>1774.2</ele>
        <time>2013-04-07T12:48:57Z</time>
      </trkpt>
      <trkpt lat="42.858896" lon="1.465010">
        <ele>1771.8</ele>
        <time>2013-04-07T12:49:06Z</time>
      </trkpt>
      <trkpt lat="42.858982" lon="1.465037">
        <ele>1769.4</ele>
        <time>2013-04-07T12:49:15Z</time>
      </trkpt>
      <trkpt lat="42.859079" lon="1.465049">
        <ele>1767.0</ele>
        <time>2013-04-07T12:49:24Z</time>
      </trkpt>
      <trkpt lat="42.859170" lon="1.465104">
        <ele>1763.7</ele>
        <time>2013-04-07T12:49:34Z</time>
      </trkpt>
      <trkpt lat="42.859240" lon="1.465150">
        <ele>1759.8</ele>
        <time>2013-04-07T12:49:44Z</time>
      </trkpt>
      <trkpt lat="42.859320" lon="1.465233">
        <ele>1757.4</ele>
        <time>2013-04-07T12:49:55Z</time>
      </trkpt>
      <trkpt lat="42.859395" lon="1.465285">
        <ele>1754.5</ele>
        <time>2013-04-07T12:50:04Z</time>
      </trkpt>
      <trkpt lat="42.859467" lon="1.465368">
        <ele>1751.7</ele>
        <time>2013-04-07T12:50:13Z</time>
      </trkpt>
      <trkpt lat="42.859556" lon="1.465404">
        <ele>1749.3</ele>
        <time>2013-04-07T12:50:22Z</time>
      </trkpt>
      <trkpt lat="42.859628" lon="1.465486">
        <ele>1746.4</ele>
        <time>2013-04-07T12:50:31Z</time>
      </trkpt>
      <trkpt lat="42.859688" lon="1.465563">
        <ele>1744.4</ele>
        <time>2013-04-07T12:50:41Z</time>
      </trkpt>
      <trkpt lat="42.859762" lon="1.465650">
        <ele>1741.6</ele>
        <time>2013-04-07T12:50:52Z</time>
      </trkpt>
      <trkpt lat="42.859833" lon="1.465710">
        <ele>1739.2</ele>
        <time>2013-04-07T12:51:01Z</time>
      </trkpt>
      <trkpt lat="42.859910" lon="1.465767">
        <ele>1737.2</ele>
        <time>2013-04-07T12:51:10Z</time>
      </trkpt>
      <trkpt lat="42.859979" lon="1.465869">
        <ele>1734.4</ele>
        <time>2013-04-07T12:51:20Z</time>
      </trkpt>
      <trkpt lat="42.860048" lon="1.465961">
        <ele>1732.4</ele>
        <time>2013-04-07T12:51:30Z</time>
      </trkpt>
      <trkpt lat="42.860113" lon="1.466047">
        <ele>1731.5</ele>
        <time>2013-04-07T12:51:40Z</time>
      </trkpt>
      <trkpt lat="42.860183" lon="1.466110">
        <ele>1729.6</ele>
        <time>2013-04-07T12:51:51Z</time>
      </trkpt>
      <trkpt lat="42.860247" lon="1.466180">
        <ele>1728.6</ele>
        <time>2013-04-07T12:52:03Z</time>
      </trkpt>
      <trkpt lat="42.860315" lon="1.466293">
        <ele>1727.6</ele>
        <time>2013-04-07T12:52:13Z</time>
      </trkpt>
      <trkpt lat="42.860388" lon="1.466371">
        <ele>1726.2</ele>
        <time>2013-04-07T12:52:23Z</time>
      </trkpt>
      <trkpt lat="42.860454" lon="1.466448">
        <ele>1725.2</ele>
        <time>2013-04-07T12:52:33Z</time>
      </trkpt>
      <trkpt lat="42.860516" lon="1.466524">
        <ele>1724.7</ele>
        <time>2013-04-07T12:52:44Z</time>
      </trkpt>
      <trkpt lat="42.860588" lon="1.466625">
        <ele>1723.8</ele>
        <time>2013-04-07T12:52:55Z</time>
      </trkpt>
      <trkpt lat="42.860657" lon="1.466708">
        <ele>1723.3</ele>
        <time>2013-04-07T12:53:04Z</time>
      </trkpt>
      <trkpt lat="42.860715" lon="1.466814">
        <ele>1723.3</ele>
        <time>2013-04-07T12:53:15Z</time>
      </trkpt>
      <trkpt lat="42.860755" lon="1.466922">
        <ele>1722.8</ele>
        <time>2013-04-07T12:53:27Z</time>
      </trkpt>
      <trkpt lat="42.860789" lon="1.467040">
        <ele>1722.3</ele>
        <time>2013-04-07T12:53:39Z</time>
      </trkpt>
      <trkpt lat="42.860784" lon="1.467165">
        <ele>1721.9</ele>
        <time>2013-04-07T12:53:55Z</time>
      </trkpt>
      <trkpt lat="42.860814" lon="1.467291">
        <ele>1721.9</ele>
        <time>2013-04-07T12:54:05Z</time>
      </trkpt>
      <trkpt lat="42.860856" lon="1.467406">
        <ele>1719.9</ele>
        <time>2013-04-07T12:54:15Z</time>
      </trkpt>
      <trkpt lat="42.860878" lon="1.467523">
        <ele>1719.5</ele>
        <time>2013-04-07T12:54:31Z</time>
      </trkpt>
      <trkpt lat="42.860925" lon="1.467608">
        <ele>1718.5</ele>
        <time>2013-04-07T12:54:47Z</time>
      </trkpt>
      <trkpt lat="42.860967" lon="1.467712">
        <ele>1716.6</ele>
        <time>2013-04-07T12:55:03Z</time>
      </trkpt>
      <trkpt lat="42.860989" lon="1.467838">
        <ele>1714.7</ele>
        <time>2013-04-07T12:55:12Z</time>
      </trkpt>
      <trkpt lat="42.861035" lon="1.467950">
        <ele>1713.7</ele>
        <time>2013-04-07T12:55:24Z</time>
      </trkpt>
      <trkpt lat="42.861101" lon="1.468055">
        <ele>1712.2</ele>
        <time>2013-04-07T12:55:37Z</time>
      </trkpt>
      <trkpt lat="42.861138" lon="1.468174">
        <ele>1711.3</ele>
        <time>2013-04-07T12:55:48Z</time>
      </trkpt>
      <trkpt lat="42.861186" lon="1.468295">
        <ele>1710.3</ele>
        <time>2013-04-07T12:55:59Z</time>
      </trkpt>
      <trkpt lat="42.861239" lon="1.468394">
        <ele>1709.8</ele>
        <time>2013-04-07T12:56:10Z</time>
      </trkpt>
      <trkpt lat="42.861281" lon="1.468508">
        <ele>1708.4</ele>
        <time>2013-04-07T12:56:20Z</time>
      </trkpt>
      <trkpt lat="42.861324" lon="1.468628">
        <ele>1707.9</ele>
        <time>2013-04-07T12:56:31Z</time>
      </trkpt>
      <trkpt lat="42.861382" lon="1.468746">
        <ele>1707.0</ele>
        <time>2013-04-07T12:56:43Z</time>
      </trkpt>
      <trkpt lat="42.861441" lon="1.468843">
        <ele>1706.5</ele>
        <time>2013-04-07T12:56:53Z</time>
      </trkpt>
      <trkpt lat="42.861508" lon="1.468933">
        <ele>1706.5</ele>
        <time>2013-04-07T12:57:06Z</time>
      </trkpt>
      <trkpt lat="42.861570" lon="1.469035">
        <ele>1706.5</ele>
        <time>2013-04-07T12:57:18Z</time>
      </trkpt>
      <trkpt lat="42.861641" lon="1.469134">
        <ele>1706.0</ele>
        <time>2013-04-07T12:57:30Z</time>
      </trkpt>
      <trkpt lat="42.861711" lon="1.469231">
        <ele>1706.5</ele>
        <time>2013-04-07T12:57:42Z</time>
      </trkpt>
      <trkpt lat="42.861775" lon="1.469324">
        <ele>1706.0</ele>
        <time>2013-04-07T12:57:54Z</time>
      </trkpt>
      <trkpt lat="42.861850" lon="1.469424">
        <ele>1706.5</ele>
        <time>2013-04-07T12:58:05Z</time>
      </trkpt>
      <trkpt lat="42.861900" lon="1.469532">
        <ele>1707.4</ele>
        <time>2013-04-07T12:58:28Z</time>
      </trkpt>
      <trkpt lat="42.861964" lon="1.469628">
        <ele>1707.4</ele>
        <time>2013-04-07T12:58:41Z</time>
      </trkpt>
      <trkpt lat="42.862038" lon="1.469722">
        <ele>1708.4</ele>
        <time>2013-04-07T12:58:54Z</time>
      </trkpt>
      <trkpt lat="42.862109" lon="1.469825">
        <ele>1708.9</ele>
        <time>2013-04-07T12:59:06Z</time>
      </trkpt>
      <trkpt lat="42.862187" lon="1.469924">
        <ele>1709.4</ele>
        <time>2013-04-07T12:59:18Z</time>
      </trkpt>
      <trkpt lat="42.862262" lon="1.470018">
        <ele>1709.8</ele>
        <time>2013-04-07T12:59:30Z</time>
      </trkpt>
      <trkpt lat="42.862329" lon="1.470118">
        <ele>1709.4</ele>
        <time>2013-04-07T12:59:42Z</time>
      </trkpt>
      <trkpt lat="42.862405" lon="1.470216">
        <ele>1709.4</ele>
        <time>2013-04-07T12:59:54Z</time>
      </trkpt>
      <trkpt lat="42.862468" lon="1.470336">
        <ele>1709.8</ele>
        <time>2013-04-07T13:00:05Z</time>
      </trkpt>
      <trkpt lat="42.862539" lon="1.470430">
        <ele>1710.8</ele>
        <time>2013-04-07T13:00:41Z</time>
      </trkpt>
      <trkpt lat="42.862593" lon="1.470531">
        <ele>1711.3</ele>
        <time>2013-04-07T13:00:53Z</time>
      </trkpt>
      <trkpt lat="42.862671" lon="1.470612">
        <ele>1712.2</ele>
        <time>2013-04-07T13:01:07Z</time>
      </trkpt>
      <trkpt lat="42.862746" lon="1.470703">
        <ele>1712.2</ele>
        <time>2013-04-07T13:01:19Z</time>
      </trkpt>
      <trkpt lat="42.862817" lon="1.470778">
        <ele>1713.2</ele>
        <time>2013-04-07T13:01:28Z</time>
      </trkpt>
      <trkpt lat="42.862896" lon="1.470852">
        <ele>1713.7</ele>
        <time>2013-04-07T13:01:39Z</time>
      </trkpt>
      <trkpt lat="42.862943" lon="1.470943">
        <ele>1715.1</ele>
        <time>2013-04-07T13:01:50Z</time>
      </trkpt>
      <trkpt lat="42.863031" lon="1.470996">
        <ele>1716.1</ele>
        <time>2013-04-07T13:02:03Z</time>
      </trkpt>
      <trkpt lat="42.863116" lon="1.471105">
        <ele>1718.5</ele>
        <time>2013-04-07T13:02:16Z</time>
      </trkpt>
      <trkpt lat="42.863166" lon="1.471201">
        <ele>1719.9</ele>
        <time>2013-04-07T13:02:27Z</time>
      </trkpt>
      <trkpt lat="42.863223" lon="1.471277">
        <ele>1722.3</ele>
        <time>2013-04-07T13:02:40Z</time>
      </trkpt>
      <trkpt lat="42.863291" lon="1.471358">
        <ele>1722.8</ele>
        <time>2013-04-07T13:02:54Z</time>
      </trkpt>
      <trkpt lat="42.863328" lon="1.471474">
        <ele>1723.8</ele>
        <time>2013-04-07T13:03:05Z</time>
      </trkpt>
      <trkpt lat="42.863389" lon="1.471581">
        <ele>1724.7</ele>
        <time>2013-04-07T13:03:15Z</time>
      </trkpt>
      <trkpt lat="42.863446" lon="1.471684">
        <ele>1726.2</ele>
        <time>2013-04-07T13:03:27Z</time>
      </trkpt>
      <trkpt lat="42.863506" lon="1.471781">
        <ele>1728.1</ele>
        <time>2013-04-07T13:03:39Z</time>
      </trkpt>
      <trkpt lat="42.863565" lon="1.471873">
        <ele>1729.6</ele>
        <time>2013-04-07T13:03:58Z</time>
      </trkpt>
      <trkpt lat="42.863602" lon="1.471981">
        <ele>1731.0</ele>
        <time>2013-04-07T13:04:10Z</time>
      </trkpt>
      <trkpt lat="42.863645" lon="1.472084">
        <ele>1732.4</ele>
        <time>2013-04-07T13:04:29Z</time>
      </trkpt>
      <trkpt lat="42.863711" lon="1.472176">
        <ele>1734.4</ele>
        <time>2013-04-07T13:04:40Z</time>
      </trkpt>
      <trkpt lat="42.863785" lon="1.472243">
        <ele>1735.8</ele>
        <time>2013-04-07T13:04:53Z</time>
        <cmt>Cap de l_Escalot</cmt>
      </trkpt>
      <trkpt lat="42.863838" lon="1.472225">
        <ele>1736.3</ele>
        <time>2013-04-07T13:06:13Z</time>
      </trkpt>
      <trkpt lat="42.863865" lon="1.472346">
        <ele>1734.8</ele>
        <time>2013-04-07T13:07:15Z</time>
      </trkpt>
      <trkpt lat="42.863809" lon="1.472441">
        <ele>1732.4</ele>
        <time>2013-04-07T13:07:31Z</time>
      </trkpt>
      <trkpt lat="42.863757" lon="1.472525">
        <ele>1728.1</ele>
        <time>2013-04-07T13:07:48Z</time>
      </trkpt>
      <trkpt lat="42.863731" lon="1.472633">
        <ele>1722.8</ele>
        <time>2013-04-07T13:08:10Z</time>
      </trkpt>
      <trkpt lat="42.863737" lon="1.472729">
        <ele>1719.9</ele>
        <time>2013-04-07T13:08:23Z</time>
      </trkpt>
      <trkpt lat="42.863719" lon="1.472846">
        <ele>1719.5</ele>
        <time>2013-04-07T13:08:39Z</time>
      </trkpt>
      <trkpt lat="42.863741" lon="1.472958">
        <ele>1718.5</ele>
        <time>2013-04-07T13:08:55Z</time>
      </trkpt>
      <trkpt lat="42.863767" lon="1.473064">
        <ele>1717.5</ele>
        <time>2013-04-07T13:09:13Z</time>
      </trkpt>
      <trkpt lat="42.863772" lon="1.473157">
        <ele>1714.2</ele>
        <time>2013-04-07T13:09:53Z</time>
      </trkpt>
      <trkpt lat="42.863800" lon="1.473262">
        <ele>1712.7</ele>
        <time>2013-04-07T13:10:48Z</time>
      </trkpt>
      <trkpt lat="42.863811" lon="1.473364">
        <ele>1712.2</ele>
        <time>2013-04-07T13:11:09Z</time>
      </trkpt>
      <trkpt lat="42.863815" lon="1.473469">
        <ele>1709.4</ele>
        <time>2013-04-07T13:11:25Z</time>
      </trkpt>
      <trkpt lat="42.863824" lon="1.473577">
        <ele>1707.0</ele>
        <time>2013-04-07T13:11:43Z</time>
      </trkpt>
      <trkpt lat="42.863769" lon="1.473687">
        <ele>1705.5</ele>
        <time>2013-04-07T13:11:54Z</time>
      </trkpt>
      <trkpt lat="42.863800" lon="1.473799">
        <ele>1706.0</ele>
        <time>2013-04-07T13:12:14Z</time>
      </trkpt>
      <trkpt lat="42.863784" lon="1.473905">
        <ele>1708.4</ele>
        <time>2013-04-07T13:12:30Z</time>
      </trkpt>
      <trkpt lat="42.863785" lon="1.474038">
        <ele>1709.4</ele>
        <time>2013-04-07T13:12:55Z</time>
      </trkpt>
      <trkpt lat="42.863758" lon="1.474159">
        <ele>1707.9</ele>
        <time>2013-04-07T13:13:27Z</time>
      </trkpt>
      <trkpt lat="42.863709" lon="1.474279">
        <ele>1707.4</ele>
        <time>2013-04-07T13:13:46Z</time>
      </trkpt>
      <trkpt lat="42.863717" lon="1.474445">
        <ele>1707.4</ele>
        <time>2013-04-07T13:14:02Z</time>
      </trkpt>
      <trkpt lat="42.863724" lon="1.474552">
        <ele>1707.0</ele>
        <time>2013-04-07T13:14:15Z</time>
      </trkpt>
      <trkpt lat="42.863670" lon="1.474612">
        <ele>1703.6</ele>
        <time>2013-04-07T13:14:29Z</time>
      </trkpt>
      <trkpt lat="42.863633" lon="1.474695">
        <ele>1702.2</ele>
        <time>2013-04-07T13:15:00Z</time>
      </trkpt>
      <trkpt lat="42.863624" lon="1.474791">
        <ele>1702.2</ele>
        <time>2013-04-07T13:15:28Z</time>
      </trkpt>
      <trkpt lat="42.863620" lon="1.474914">
        <ele>1703.6</ele>
        <time>2013-04-07T13:15:50Z</time>
      </trkpt>
      <trkpt lat="42.863617" lon="1.475063">
        <ele>1704.6</ele>
        <time>2013-04-07T13:16:11Z</time>
      </trkpt>
      <trkpt lat="42.863637" lon="1.475196">
        <ele>1708.4</ele>
        <time>2013-04-07T13:16:32Z</time>
      </trkpt>
      <trkpt lat="42.863654" lon="1.475319">
        <ele>1710.8</ele>
        <time>2013-04-07T13:16:56Z</time>
      </trkpt>
      <trkpt lat="42.863660" lon="1.475444">
        <ele>1712.7</ele>
        <time>2013-04-07T13:17:16Z</time>
      </trkpt>
      <trkpt lat="42.863679" lon="1.475568">
        <ele>1714.2</ele>
        <time>2013-04-07T13:17:37Z</time>
      </trkpt>
      <trkpt lat="42.863696" lon="1.475709">
        <ele>1716.1</ele>
        <time>2013-04-07T13:17:58Z</time>
      </trkpt>
      <trkpt lat="42.863689" lon="1.475823">
        <ele>1717.5</ele>
        <time>2013-04-07T13:18:12Z</time>
      </trkpt>
      <trkpt lat="42.863676" lon="1.475935">
        <ele>1719.5</ele>
        <time>2013-04-07T13:18:30Z</time>
      </trkpt>
      <trkpt lat="42.863664" lon="1.476066">
        <ele>1720.9</ele>
        <time>2013-04-07T13:18:41Z</time>
      </trkpt>
      <trkpt lat="42.863665" lon="1.476182">
        <ele>1722.3</ele>
        <time>2013-04-07T13:18:54Z</time>
      </trkpt>
      <trkpt lat="42.863686" lon="1.476294">
        <ele>1723.8</ele>
        <time>2013-04-07T13:19:05Z</time>
      </trkpt>
      <trkpt lat="42.863725" lon="1.476349">
        <ele>1724.3</ele>
        <time>2013-04-07T13:21:17Z</time>
      </trkpt>
      <trkpt lat="42.863727" lon="1.476442">
        <ele>1725.7</ele>
        <time>2013-04-07T13:22:03Z</time>
      </trkpt>
      <trkpt lat="42.863759" lon="1.476574">
        <ele>1727.2</ele>
        <time>2013-04-07T13:22:13Z</time>
      </trkpt>
      <trkpt lat="42.863819" lon="1.476686">
        <ele>1727.2</ele>
        <time>2013-04-07T13:22:24Z</time>
      </trkpt>
      <trkpt lat="42.863829" lon="1.476805">
        <ele>1729.1</ele>
        <time>2013-04-07T13:22:38Z</time>
      </trkpt>
      <trkpt lat="42.863867" lon="1.476917">
        <ele>1730.0</ele>
        <time>2013-04-07T13:22:48Z</time>
      </trkpt>
      <trkpt lat="42.863864" lon="1.477049">
        <ele>1731.5</ele>
        <time>2013-04-07T13:22:58Z</time>
      </trkpt>
      <trkpt lat="42.863858" lon="1.477108">
        <ele>1730.0</ele>
        <time>2013-04-07T13:24:43Z</time>
      </trkpt>
      <trkpt lat="42.863891" lon="1.477127">
        <ele>1730.5</ele>
        <time>2013-04-07T13:30:53Z</time>
      </trkpt>
      <trkpt lat="42.863919" lon="1.477251">
        <ele>1730.5</ele>
        <time>2013-04-07T13:31:07Z</time>
      </trkpt>
      <trkpt lat="42.863942" lon="1.477369">
        <ele>1729.1</ele>
        <time>2013-04-07T13:31:17Z</time>
      </trkpt>
      <trkpt lat="42.863952" lon="1.477498">
        <ele>1727.6</ele>
        <time>2013-04-07T13:31:27Z</time>
      </trkpt>
      <trkpt lat="42.863982" lon="1.477615">
        <ele>1727.2</ele>
        <time>2013-04-07T13:31:36Z</time>
      </trkpt>
      <trkpt lat="42.864003" lon="1.477727">
        <ele>1727.2</ele>
        <time>2013-04-07T13:31:44Z</time>
      </trkpt>
      <trkpt lat="42.864030" lon="1.477856">
        <ele>1727.2</ele>
        <time>2013-04-07T13:31:53Z</time>
      </trkpt>
      <trkpt lat="42.864061" lon="1.477965">
        <ele>1727.2</ele>
        <time>2013-04-07T13:32:01Z</time>
      </trkpt>
      <trkpt lat="42.864094" lon="1.478085">
        <ele>1726.2</ele>
        <time>2013-04-07T13:32:09Z</time>
      </trkpt>
      <trkpt lat="42.864135" lon="1.478204">
        <ele>1725.7</ele>
        <time>2013-04-07T13:32:19Z</time>
      </trkpt>
      <trkpt lat="42.864160" lon="1.478336">
        <ele>1725.2</ele>
        <time>2013-04-07T13:32:28Z</time>
      </trkpt>
      <trkpt lat="42.864162" lon="1.478471">
        <ele>1725.2</ele>
        <time>2013-04-07T13:32:39Z</time>
      </trkpt>
      <trkpt lat="42.864161" lon="1.478596">
        <ele>1724.7</ele>
        <time>2013-04-07T13:32:49Z</time>
      </trkpt>
      <trkpt lat="42.864154" lon="1.478722">
        <ele>1723.8</ele>
        <time>2013-04-07T13:32:59Z</time>
      </trkpt>
      <trkpt lat="42.864173" lon="1.478859">
        <ele>1722.8</ele>
        <time>2013-04-07T13:33:09Z</time>
      </trkpt>
      <trkpt lat="42.864182" lon="1.478992">
        <ele>1721.9</ele>
        <time>2013-04-07T13:33:20Z</time>
      </trkpt>
      <trkpt lat="42.864181" lon="1.479135">
        <ele>1720.4</ele>
        <time>2013-04-07T13:33:31Z</time>
      </trkpt>
      <trkpt lat="42.864183" lon="1.479269">
        <ele>1719.5</ele>
        <time>2013-04-07T13:33:42Z</time>
      </trkpt>
      <trkpt lat="42.864201" lon="1.479404">
        <ele>1718.5</ele>
        <time>2013-04-07T13:33:53Z</time>
      </trkpt>
      <trkpt lat="42.864218" lon="1.479529">
        <ele>1718.5</ele>
        <time>2013-04-07T13:34:05Z</time>
      </trkpt>
      <trkpt lat="42.864251" lon="1.479660">
        <ele>1718.0</ele>
        <time>2013-04-07T13:34:16Z</time>
      </trkpt>
      <trkpt lat="42.864264" lon="1.479798">
        <ele>1718.5</ele>
        <time>2013-04-07T13:34:27Z</time>
      </trkpt>
      <trkpt lat="42.864285" lon="1.479924">
        <ele>1719.0</ele>
        <time>2013-04-07T13:34:39Z</time>
      </trkpt>
      <trkpt lat="42.864296" lon="1.480057">
        <ele>1720.4</ele>
        <time>2013-04-07T13:34:50Z</time>
      </trkpt>
      <trkpt lat="42.864283" lon="1.480193">
        <ele>1719.9</ele>
        <time>2013-04-07T13:35:01Z</time>
      </trkpt>
      <trkpt lat="42.864318" lon="1.480294">
        <ele>1719.5</ele>
        <time>2013-04-07T13:35:10Z</time>
      </trkpt>
      <trkpt lat="42.864350" lon="1.480400">
        <ele>1718.5</ele>
        <time>2013-04-07T13:35:20Z</time>
      </trkpt>
      <trkpt lat="42.864395" lon="1.480529">
        <ele>1719.0</ele>
        <time>2013-04-07T13:35:33Z</time>
      </trkpt>
      <trkpt lat="42.864378" lon="1.480660">
        <ele>1719.5</ele>
        <time>2013-04-07T13:35:46Z</time>
      </trkpt>
      <trkpt lat="42.864333" lon="1.480788">
        <ele>1720.4</ele>
        <time>2013-04-07T13:35:58Z</time>
      </trkpt>
      <trkpt lat="42.864327" lon="1.480917">
        <ele>1721.9</ele>
        <time>2013-04-07T13:36:10Z</time>
      </trkpt>
      <trkpt lat="42.864302" lon="1.481047">
        <ele>1720.4</ele>
        <time>2013-04-07T13:36:21Z</time>
      </trkpt>
      <trkpt lat="42.864316" lon="1.481185">
        <ele>1718.5</ele>
        <time>2013-04-07T13:36:32Z</time>
      </trkpt>
      <trkpt lat="42.864343" lon="1.481322">
        <ele>1718.0</ele>
        <time>2013-04-07T13:36:42Z</time>
      </trkpt>
      <trkpt lat="42.864382" lon="1.481446">
        <ele>1716.1</ele>
        <time>2013-04-07T13:36:52Z</time>
      </trkpt>
      <trkpt lat="42.864385" lon="1.481574">
        <ele>1715.6</ele>
        <time>2013-04-07T13:37:01Z</time>
      </trkpt>
      <trkpt lat="42.864373" lon="1.481689">
        <ele>1713.2</ele>
        <time>2013-04-07T13:37:12Z</time>
      </trkpt>
      <trkpt lat="42.864372" lon="1.481809">
        <ele>1712.2</ele>
        <time>2013-04-07T13:37:24Z</time>
      </trkpt>
      <trkpt lat="42.864327" lon="1.481917">
        <ele>1711.3</ele>
        <time>2013-04-07T13:37:35Z</time>
      </trkpt>
      <trkpt lat="42.864262" lon="1.482006">
        <ele>1709.8</ele>
        <time>2013-04-07T13:37:45Z</time>
      </trkpt>
      <trkpt lat="42.864200" lon="1.482106">
        <ele>1708.4</ele>
        <time>2013-04-07T13:37:56Z</time>
      </trkpt>
      <trkpt lat="42.864135" lon="1.482200">
        <ele>1706.5</ele>
        <time>2013-04-07T13:38:06Z</time>
      </trkpt>
      <trkpt lat="42.864086" lon="1.482297">
        <ele>1704.6</ele>
        <time>2013-04-07T13:38:15Z</time>
      </trkpt>
      <trkpt lat="42.864038" lon="1.482407">
        <ele>1702.2</ele>
        <time>2013-04-07T13:38:24Z</time>
      </trkpt>
      <trkpt lat="42.863993" lon="1.482515">
        <ele>1699.8</ele>
        <time>2013-04-07T13:38:34Z</time>
      </trkpt>
      <trkpt lat="42.863927" lon="1.482618">
        <ele>1698.8</ele>
        <time>2013-04-07T13:38:44Z</time>
      </trkpt>
      <trkpt lat="42.863864" lon="1.482702">
        <ele>1698.3</ele>
        <time>2013-04-07T13:38:54Z</time>
      </trkpt>
      <trkpt lat="42.863811" lon="1.482810">
        <ele>1698.8</ele>
        <time>2013-04-07T13:39:04Z</time>
      </trkpt>
      <trkpt lat="42.863756" lon="1.482913">
        <ele>1699.3</ele>
        <time>2013-04-07T13:39:15Z</time>
      </trkpt>
      <trkpt lat="42.863672" lon="1.482979">
        <ele>1698.8</ele>
        <time>2013-04-07T13:39:25Z</time>
      </trkpt>
      <trkpt lat="42.863641" lon="1.483104">
        <ele>1699.3</ele>
        <time>2013-04-07T13:39:36Z</time>
      </trkpt>
      <trkpt lat="42.863574" lon="1.483202">
        <ele>1699.3</ele>
        <time>2013-04-07T13:39:45Z</time>
      </trkpt>
      <trkpt lat="42.863499" lon="1.483288">
        <ele>1698.8</ele>
        <time>2013-04-07T13:39:54Z</time>
      </trkpt>
      <trkpt lat="42.863451" lon="1.483365">
        <ele>1697.3</ele>
        <time>2013-04-07T13:40:04Z</time>
      </trkpt>
      <trkpt lat="42.863403" lon="1.483483">
        <ele>1696.9</ele>
        <time>2013-04-07T13:40:14Z</time>
      </trkpt>
      <trkpt lat="42.863355" lon="1.483580">
        <ele>1695.9</ele>
        <time>2013-04-07T13:40:22Z</time>
      </trkpt>
      <trkpt lat="42.863293" lon="1.483689">
        <ele>1695.4</ele>
        <time>2013-04-07T13:40:30Z</time>
      </trkpt>
      <trkpt lat="42.863215" lon="1.483797">
        <ele>1694.5</ele>
        <time>2013-04-07T13:40:39Z</time>
      </trkpt>
      <trkpt lat="42.863150" lon="1.483904">
        <ele>1694.0</ele>
        <time>2013-04-07T13:40:49Z</time>
      </trkpt>
      <trkpt lat="42.863086" lon="1.483984">
        <ele>1693.5</ele>
        <time>2013-04-07T13:40:57Z</time>
      </trkpt>
      <trkpt lat="42.863018" lon="1.484068">
        <ele>1694.0</ele>
        <time>2013-04-07T13:41:07Z</time>
      </trkpt>
      <trkpt lat="42.862960" lon="1.484177">
        <ele>1694.0</ele>
        <time>2013-04-07T13:41:18Z</time>
      </trkpt>
      <trkpt lat="42.862893" lon="1.484268">
        <ele>1691.6</ele>
        <time>2013-04-07T13:41:29Z</time>
      </trkpt>
      <trkpt lat="42.862840" lon="1.484352">
        <ele>1689.7</ele>
        <time>2013-04-07T13:41:40Z</time>
      </trkpt>
      <trkpt lat="42.862776" lon="1.484467">
        <ele>1689.2</ele>
        <time>2013-04-07T13:41:50Z</time>
      </trkpt>
      <trkpt lat="42.862716" lon="1.484564">
        <ele>1687.7</ele>
        <time>2013-04-07T13:42:00Z</time>
      </trkpt>
      <trkpt lat="42.862660" lon="1.484671">
        <ele>1685.8</ele>
        <time>2013-04-07T13:42:11Z</time>
      </trkpt>
      <trkpt lat="42.862574" lon="1.484737">
        <ele>1684.8</ele>
        <time>2013-04-07T13:42:20Z</time>
      </trkpt>
      <trkpt lat="42.862492" lon="1.484799">
        <ele>1685.3</ele>
        <time>2013-04-07T13:42:30Z</time>
      </trkpt>
      <trkpt lat="42.862427" lon="1.484888">
        <ele>1684.8</ele>
        <time>2013-04-07T13:42:41Z</time>
      </trkpt>
      <trkpt lat="42.862383" lon="1.485011">
        <ele>1684.8</ele>
        <time>2013-04-07T13:42:51Z</time>
      </trkpt>
      <trkpt lat="42.862343" lon="1.485126">
        <ele>1684.4</ele>
        <time>2013-04-07T13:43:01Z</time>
      </trkpt>
      <trkpt lat="42.862308" lon="1.485238">
        <ele>1684.8</ele>
        <time>2013-04-07T13:43:11Z</time>
      </trkpt>
      <trkpt lat="42.862257" lon="1.485356">
        <ele>1684.4</ele>
        <time>2013-04-07T13:43:21Z</time>
      </trkpt>
      <trkpt lat="42.862209" lon="1.485449">
        <ele>1683.9</ele>
        <time>2013-04-07T13:43:30Z</time>
      </trkpt>
      <trkpt lat="42.862150" lon="1.485569">
        <ele>1684.4</ele>
        <time>2013-04-07T13:43:39Z</time>
      </trkpt>
      <trkpt lat="42.862107" lon="1.485669">
        <ele>1684.4</ele>
        <time>2013-04-07T13:43:48Z</time>
      </trkpt>
      <trkpt lat="42.862053" lon="1.485780">
        <ele>1685.3</ele>
        <time>2013-04-07T13:43:58Z</time>
      </trkpt>
      <trkpt lat="42.861976" lon="1.485900">
        <ele>1686.3</ele>
        <time>2013-04-07T13:44:11Z</time>
      </trkpt>
      <trkpt lat="42.861905" lon="1.485994">
        <ele>1687.2</ele>
        <time>2013-04-07T13:44:25Z</time>
      </trkpt>
      <trkpt lat="42.861833" lon="1.486082">
        <ele>1689.2</ele>
        <time>2013-04-07T13:44:41Z</time>
      </trkpt>
      <trkpt lat="42.861742" lon="1.486138">
        <ele>1692.1</ele>
        <time>2013-04-07T13:44:56Z</time>
      </trkpt>
      <trkpt lat="42.861662" lon="1.486204">
        <ele>1693.5</ele>
        <time>2013-04-07T13:45:10Z</time>
      </trkpt>
      <trkpt lat="42.861605" lon="1.486282">
        <ele>1695.9</ele>
        <time>2013-04-07T13:45:25Z</time>
      </trkpt>
      <trkpt lat="42.861583" lon="1.486414">
        <ele>1697.3</ele>
        <time>2013-04-07T13:45:38Z</time>
        <cmt>Sommet de Menties</cmt>
      </trkpt>
      <trkpt lat="42.861556" lon="1.486524">
        <ele>1696.9</ele>
        <time>2013-04-07T13:45:59Z</time>
      </trkpt>
      <trkpt lat="42.861549" lon="1.486634">
        <ele>1695.9</ele>
        <time>2013-04-07T13:48:08Z</time>
      </trkpt>
      <trkpt lat="42.861594" lon="1.486742">
        <ele>1692.1</ele>
        <time>2013-04-07T13:48:19Z</time>
      </trkpt>
      <trkpt lat="42.861645" lon="1.486855">
        <ele>1689.7</ele>
        <time>2013-04-07T13:48:29Z</time>
      </trkpt>
      <trkpt lat="42.861681" lon="1.486971">
        <ele>1688.2</ele>
        <time>2013-04-07T13:48:39Z</time>
      </trkpt>
      <trkpt lat="42.861688" lon="1.487111">
        <ele>1686.8</ele>
        <time>2013-04-07T13:48:49Z</time>
      </trkpt>
      <trkpt lat="42.861698" lon="1.487249">
        <ele>1685.3</ele>
        <time>2013-04-07T13:49:00Z</time>
      </trkpt>
      <trkpt lat="42.861692" lon="1.487379">
        <ele>1683.4</ele>
        <time>2013-04-07T13:49:09Z</time>
      </trkpt>
      <trkpt lat="42.861684" lon="1.487512">
        <ele>1682.0</ele>
        <time>2013-04-07T13:49:18Z</time>
      </trkpt>
      <trkpt lat="42.861659" lon="1.487641">
        <ele>1680.5</ele>
        <time>2013-04-07T13:49:28Z</time>
      </trkpt>
      <trkpt lat="42.861635" lon="1.487774">
        <ele>1678.6</ele>
        <time>2013-04-07T13:49:38Z</time>
      </trkpt>
      <trkpt lat="42.861586" lon="1.487889">
        <ele>1676.7</ele>
        <time>2013-04-07T13:49:49Z</time>
      </trkpt>
      <trkpt lat="42.861540" lon="1.488013">
        <ele>1674.3</ele>
        <time>2013-04-07T13:49:58Z</time>
      </trkpt>
      <trkpt lat="42.861502" lon="1.488128">
        <ele>1671.4</ele>
        <time>2013-04-07T13:50:08Z</time>
      </trkpt>
      <trkpt lat="42.861444" lon="1.488228">
        <ele>1668.5</ele>
        <time>2013-04-07T13:50:18Z</time>
      </trkpt>
      <trkpt lat="42.861392" lon="1.488341">
        <ele>1664.7</ele>
        <time>2013-04-07T13:50:28Z</time>
      </trkpt>
      <trkpt lat="42.861345" lon="1.488450">
        <ele>1660.8</ele>
        <time>2013-04-07T13:50:39Z</time>
      </trkpt>
      <trkpt lat="42.861308" lon="1.488563">
        <ele>1657.4</ele>
        <time>2013-04-07T13:50:50Z</time>
      </trkpt>
      <trkpt lat="42.861250" lon="1.488655">
        <ele>1653.1</ele>
        <time>2013-04-07T13:51:02Z</time>
      </trkpt>
      <trkpt lat="42.861213" lon="1.488725">
        <ele>1649.3</ele>
        <time>2013-04-07T13:51:12Z</time>
      </trkpt>
      <trkpt lat="42.861141" lon="1.488751">
        <ele>1643.5</ele>
        <time>2013-04-07T13:51:27Z</time>
      </trkpt>
      <trkpt lat="42.861077" lon="1.488851">
        <ele>1640.2</ele>
        <time>2013-04-07T13:51:40Z</time>
      </trkpt>
      <trkpt lat="42.861041" lon="1.488992">
        <ele>1638.7</ele>
        <time>2013-04-07T13:51:49Z</time>
      </trkpt>
      <trkpt lat="42.861005" lon="1.489131">
        <ele>1637.3</ele>
        <time>2013-04-07T13:51:58Z</time>
      </trkpt>
      <trkpt lat="42.860965" lon="1.489242">
        <ele>1635.8</ele>
        <time>2013-04-07T13:52:06Z</time>
      </trkpt>
      <trkpt lat="42.860940" lon="1.489368">
        <ele>1634.4</ele>
        <time>2013-04-07T13:52:15Z</time>
      </trkpt>
      <trkpt lat="42.860900" lon="1.489494">
        <ele>1632.0</ele>
        <time>2013-04-07T13:52:24Z</time>
      </trkpt>
      <trkpt lat="42.860873" lon="1.489608">
        <ele>1631.0</ele>
        <time>2013-04-07T13:52:33Z</time>
      </trkpt>
      <trkpt lat="42.860843" lon="1.489743">
        <ele>1630.1</ele>
        <time>2013-04-07T13:52:43Z</time>
      </trkpt>
      <trkpt lat="42.860813" lon="1.489872">
        <ele>1628.6</ele>
        <time>2013-04-07T13:52:51Z</time>
      </trkpt>
      <trkpt lat="42.860771" lon="1.489997">
        <ele>1626.7</ele>
        <time>2013-04-07T13:53:01Z</time>
      </trkpt>
      <trkpt lat="42.860755" lon="1.490128">
        <ele>1625.7</ele>
        <time>2013-04-07T13:53:10Z</time>
      </trkpt>
      <trkpt lat="42.860734" lon="1.490257">
        <ele>1625.2</ele>
        <time>2013-04-07T13:53:18Z</time>
      </trkpt>
      <trkpt lat="42.860730" lon="1.490388">
        <ele>1625.7</ele>
        <time>2013-04-07T13:53:27Z</time>
      </trkpt>
      <trkpt lat="42.860721" lon="1.490519">
        <ele>1626.2</ele>
        <time>2013-04-07T13:53:51Z</time>
      </trkpt>
      <trkpt lat="42.860710" lon="1.490639">
        <ele>1626.7</ele>
        <time>2013-04-07T13:53:59Z</time>
      </trkpt>
      <trkpt lat="42.860713" lon="1.490781">
        <ele>1627.2</ele>
        <time>2013-04-07T13:54:08Z</time>
      </trkpt>
      <trkpt lat="42.860707" lon="1.490909">
        <ele>1627.2</ele>
        <time>2013-04-07T13:54:16Z</time>
      </trkpt>
      <trkpt lat="42.860706" lon="1.491052">
        <ele>1627.7</ele>
        <time>2013-04-07T13:54:25Z</time>
      </trkpt>
      <trkpt lat="42.860682" lon="1.491194">
        <ele>1627.7</ele>
        <time>2013-04-07T13:54:33Z</time>
      </trkpt>
      <trkpt lat="42.860667" lon="1.491318">
        <ele>1628.6</ele>
        <time>2013-04-07T13:54:42Z</time>
      </trkpt>
      <trkpt lat="42.860653" lon="1.491459">
        <ele>1628.1</ele>
        <time>2013-04-07T13:54:54Z</time>
      </trkpt>
      <trkpt lat="42.860634" lon="1.491585">
        <ele>1629.6</ele>
        <time>2013-04-07T13:55:07Z</time>
      </trkpt>
      <trkpt lat="42.860586" lon="1.491680">
        <ele>1629.6</ele>
        <time>2013-04-07T13:55:52Z</time>
      </trkpt>
      <trkpt lat="42.860570" lon="1.491798">
        <ele>1629.1</ele>
        <time>2013-04-07T13:56:03Z</time>
      </trkpt>
      <trkpt lat="42.860528" lon="1.491909">
        <ele>1629.1</ele>
        <time>2013-04-07T13:56:12Z</time>
      </trkpt>
      <trkpt lat="42.860506" lon="1.492014">
        <ele>1627.7</ele>
        <time>2013-04-07T13:56:21Z</time>
      </trkpt>
      <trkpt lat="42.860463" lon="1.492125">
        <ele>1626.7</ele>
        <time>2013-04-07T13:56:31Z</time>
      </trkpt>
      <trkpt lat="42.860418" lon="1.492216">
        <ele>1626.2</ele>
        <time>2013-04-07T13:56:41Z</time>
      </trkpt>
      <trkpt lat="42.860362" lon="1.492320">
        <ele>1625.7</ele>
        <time>2013-04-07T13:56:52Z</time>
      </trkpt>
      <trkpt lat="42.860304" lon="1.492439">
        <ele>1626.7</ele>
        <time>2013-04-07T13:57:04Z</time>
      </trkpt>
      <trkpt lat="42.860238" lon="1.492535">
        <ele>1627.2</ele>
        <time>2013-04-07T13:57:13Z</time>
      </trkpt>
      <trkpt lat="42.860188" lon="1.492641">
        <ele>1627.7</ele>
        <time>2013-04-07T13:57:22Z</time>
      </trkpt>
      <trkpt lat="42.860128" lon="1.492754">
        <ele>1628.1</ele>
        <time>2013-04-07T13:57:32Z</time>
      </trkpt>
      <trkpt lat="42.860058" lon="1.492848">
        <ele>1629.1</ele>
        <time>2013-04-07T13:57:43Z</time>
      </trkpt>
      <trkpt lat="42.860017" lon="1.492971">
        <ele>1630.1</ele>
        <time>2013-04-07T13:57:55Z</time>
      </trkpt>
      <trkpt lat="42.859988" lon="1.493090">
        <ele>1631.0</ele>
        <time>2013-04-07T13:58:06Z</time>
      </trkpt>
      <trkpt lat="42.859940" lon="1.493212">
        <ele>1632.5</ele>
        <time>2013-04-07T13:58:19Z</time>
      </trkpt>
      <trkpt lat="42.859896" lon="1.493317">
        <ele>1633.9</ele>
        <time>2013-04-07T13:58:31Z</time>
      </trkpt>
      <trkpt lat="42.859837" lon="1.493416">
        <ele>1635.8</ele>
        <time>2013-04-07T13:58:44Z</time>
      </trkpt>
      <trkpt lat="42.859809" lon="1.493533">
        <ele>1637.7</ele>
        <time>2013-04-07T13:59:06Z</time>
      </trkpt>
      <trkpt lat="42.859783" lon="1.493652">
        <ele>1639.7</ele>
        <time>2013-04-07T13:59:22Z</time>
      </trkpt>
      <trkpt lat="42.859744" lon="1.493764">
        <ele>1641.6</ele>
        <time>2013-04-07T13:59:50Z</time>
      </trkpt>
      <trkpt lat="42.859694" lon="1.493863">
        <ele>1644.0</ele>
        <time>2013-04-07T14:00:02Z</time>
      </trkpt>
      <trkpt lat="42.859686" lon="1.493970">
        <ele>1645.4</ele>
        <time>2013-04-07T14:00:13Z</time>
      </trkpt>
      <trkpt lat="42.859652" lon="1.494098">
        <ele>1647.4</ele>
        <time>2013-04-07T14:00:25Z</time>
      </trkpt>
      <trkpt lat="42.859626" lon="1.494221">
        <ele>1648.8</ele>
        <time>2013-04-07T14:00:36Z</time>
      </trkpt>
      <trkpt lat="42.859601" lon="1.494354">
        <ele>1650.2</ele>
        <time>2013-04-07T14:00:48Z</time>
      </trkpt>
      <trkpt lat="42.859546" lon="1.494479">
        <ele>1651.7</ele>
        <time>2013-04-07T14:00:59Z</time>
      </trkpt>
      <trkpt lat="42.859484" lon="1.494573">
        <ele>1653.6</ele>
        <time>2013-04-07T14:01:11Z</time>
      </trkpt>
      <trkpt lat="42.859448" lon="1.494692">
        <ele>1655.1</ele>
        <time>2013-04-07T14:01:22Z</time>
      </trkpt>
      <trkpt lat="42.859396" lon="1.494798">
        <ele>1657.0</ele>
        <time>2013-04-07T14:01:34Z</time>
      </trkpt>
      <trkpt lat="42.859319" lon="1.494891">
        <ele>1659.4</ele>
        <time>2013-04-07T14:01:47Z</time>
      </trkpt>
      <trkpt lat="42.859258" lon="1.494991">
        <ele>1660.8</ele>
        <time>2013-04-07T14:01:59Z</time>
      </trkpt>
      <trkpt lat="42.859188" lon="1.495053">
        <ele>1660.8</ele>
        <time>2013-04-07T14:04:31Z</time>
      </trkpt>
      <trkpt lat="42.859098" lon="1.495112">
        <ele>1661.3</ele>
        <time>2013-04-07T14:04:47Z</time>
      </trkpt>
      <trkpt lat="42.859014" lon="1.495116">
        <ele>1660.8</ele>
        <time>2013-04-07T14:04:58Z</time>
      </trkpt>
      <trkpt lat="42.858976" lon="1.495236">
        <ele>1659.4</ele>
        <time>2013-04-07T14:05:11Z</time>
      </trkpt>
      <trkpt lat="42.858914" lon="1.495330">
        <ele>1658.4</ele>
        <time>2013-04-07T14:05:26Z</time>
      </trkpt>
      <trkpt lat="42.858861" lon="1.495447">
        <ele>1657.9</ele>
        <time>2013-04-07T14:05:37Z</time>
      </trkpt>
      <trkpt lat="42.858806" lon="1.495553">
        <ele>1658.9</ele>
        <time>2013-04-07T14:05:48Z</time>
      </trkpt>
      <trkpt lat="42.858753" lon="1.495671">
        <ele>1659.8</ele>
        <time>2013-04-07T14:05:59Z</time>
      </trkpt>
      <trkpt lat="42.858702" lon="1.495783">
        <ele>1660.3</ele>
        <time>2013-04-07T14:06:09Z</time>
      </trkpt>
      <trkpt lat="42.858661" lon="1.495900">
        <ele>1661.3</ele>
        <time>2013-04-07T14:06:19Z</time>
      </trkpt>
      <trkpt lat="42.858599" lon="1.495998">
        <ele>1661.8</ele>
        <time>2013-04-07T14:06:37Z</time>
      </trkpt>
      <trkpt lat="42.858537" lon="1.496102">
        <ele>1661.8</ele>
        <time>2013-04-07T14:06:46Z</time>
      </trkpt>
      <trkpt lat="42.858494" lon="1.496220">
        <ele>1661.8</ele>
        <time>2013-04-07T14:06:55Z</time>
      </trkpt>
      <trkpt lat="42.858450" lon="1.496335">
        <ele>1661.8</ele>
        <time>2013-04-07T14:07:04Z</time>
      </trkpt>
      <trkpt lat="42.858394" lon="1.496436">
        <ele>1661.8</ele>
        <time>2013-04-07T14:07:14Z</time>
      </trkpt>
      <trkpt lat="42.858328" lon="1.496543">
        <ele>1661.8</ele>
        <time>2013-04-07T14:07:24Z</time>
      </trkpt>
      <trkpt lat="42.858265" lon="1.496643">
        <ele>1661.8</ele>
        <time>2013-04-07T14:07:32Z</time>
      </trkpt>
      <trkpt lat="42.858209" lon="1.496756">
        <ele>1660.8</ele>
        <time>2013-04-07T14:07:41Z</time>
      </trkpt>
      <trkpt lat="42.858152" lon="1.496853">
        <ele>1659.8</ele>
        <time>2013-04-07T14:07:51Z</time>
      </trkpt>
      <trkpt lat="42.858088" lon="1.496958">
        <ele>1658.9</ele>
        <time>2013-04-07T14:08:00Z</time>
      </trkpt>
      <trkpt lat="42.858005" lon="1.497039">
        <ele>1658.4</ele>
        <time>2013-04-07T14:08:10Z</time>
      </trkpt>
      <trkpt lat="42.857928" lon="1.497106">
        <ele>1657.9</ele>
        <time>2013-04-07T14:08:19Z</time>
      </trkpt>
      <trkpt lat="42.857851" lon="1.497191">
        <ele>1657.4</ele>
        <time>2013-04-07T14:08:29Z</time>
      </trkpt>
      <trkpt lat="42.857776" lon="1.497278">
        <ele>1656.0</ele>
        <time>2013-04-07T14:08:38Z</time>
      </trkpt>
      <trkpt lat="42.857744" lon="1.497398">
        <ele>1654.6</ele>
        <time>2013-04-07T14:08:48Z</time>
      </trkpt>
      <trkpt lat="42.857698" lon="1.497489">
        <ele>1652.6</ele>
        <time>2013-04-07T14:08:59Z</time>
      </trkpt>
      <trkpt lat="42.857650" lon="1.497624">
        <ele>1651.2</ele>
        <time>2013-04-07T14:09:12Z</time>
      </trkpt>
      <trkpt lat="42.857631" lon="1.497747">
        <ele>1648.8</ele>
        <time>2013-04-07T14:09:32Z</time>
      </trkpt>
      <trkpt lat="42.857600" lon="1.497868">
        <ele>1646.4</ele>
        <time>2013-04-07T14:09:45Z</time>
      </trkpt>
      <trkpt lat="42.857577" lon="1.497989">
        <ele>1642.6</ele>
        <time>2013-04-07T14:09:58Z</time>
      </trkpt>
      <trkpt lat="42.857591" lon="1.498125">
        <ele>1638.2</ele>
        <time>2013-04-07T14:10:11Z</time>
      </trkpt>
      <trkpt lat="42.857612" lon="1.498257">
        <ele>1634.9</ele>
        <time>2013-04-07T14:10:23Z</time>
      </trkpt>
      <trkpt lat="42.857596" lon="1.498389">
        <ele>1631.5</ele>
        <time>2013-04-07T14:10:34Z</time>
      </trkpt>
      <trkpt lat="42.857584" lon="1.498517">
        <ele>1628.6</ele>
        <time>2013-04-07T14:10:45Z</time>
      </trkpt>
      <trkpt lat="42.857568" lon="1.498633">
        <ele>1625.2</ele>
        <time>2013-04-07T14:10:55Z</time>
      </trkpt>
      <trkpt lat="42.857555" lon="1.498764">
        <ele>1621.9</ele>
        <time>2013-04-07T14:11:07Z</time>
      </trkpt>
      <trkpt lat="42.857548" lon="1.498897">
        <ele>1618.0</ele>
        <time>2013-04-07T14:11:19Z</time>
      </trkpt>
      <trkpt lat="42.857541" lon="1.499033">
        <ele>1614.7</ele>
        <time>2013-04-07T14:11:28Z</time>
      </trkpt>
      <trkpt lat="42.857570" lon="1.499140">
        <ele>1612.3</ele>
        <time>2013-04-07T14:11:37Z</time>
      </trkpt>
      <trkpt lat="42.857571" lon="1.499272">
        <ele>1609.9</ele>
        <time>2013-04-07T14:11:48Z</time>
      </trkpt>
      <trkpt lat="42.857535" lon="1.499384">
        <ele>1608.4</ele>
        <time>2013-04-07T14:14:10Z</time>
      </trkpt>
      <trkpt lat="42.857548" lon="1.499496">
        <ele>1607.0</ele>
        <time>2013-04-07T14:14:22Z</time>
      </trkpt>
      <trkpt lat="42.857564" lon="1.499616">
        <ele>1604.1</ele>
        <time>2013-04-07T14:14:33Z</time>
      </trkpt>
      <trkpt lat="42.857547" lon="1.499741">
        <ele>1601.2</ele>
        <time>2013-04-07T14:14:43Z</time>
      </trkpt>
      <trkpt lat="42.857524" lon="1.499871">
        <ele>1597.4</ele>
        <time>2013-04-07T14:14:53Z</time>
      </trkpt>
      <trkpt lat="42.857502" lon="1.500005">
        <ele>1595.0</ele>
        <time>2013-04-07T14:15:03Z</time>
      </trkpt>
      <trkpt lat="42.857464" lon="1.500134">
        <ele>1591.6</ele>
        <time>2013-04-07T14:15:13Z</time>
      </trkpt>
      <trkpt lat="42.857441" lon="1.500244">
        <ele>1588.7</ele>
        <time>2013-04-07T14:15:21Z</time>
      </trkpt>
      <trkpt lat="42.857410" lon="1.500356">
        <ele>1585.8</ele>
        <time>2013-04-07T14:15:30Z</time>
      </trkpt>
      <trkpt lat="42.857381" lon="1.500475">
        <ele>1582.9</ele>
        <time>2013-04-07T14:15:38Z</time>
      </trkpt>
      <trkpt lat="42.857353" lon="1.500600">
        <ele>1579.1</ele>
        <time>2013-04-07T14:15:46Z</time>
      </trkpt>
      <trkpt lat="42.857323" lon="1.500721">
        <ele>1576.2</ele>
        <time>2013-04-07T14:15:53Z</time>
      </trkpt>
      <trkpt lat="42.857293" lon="1.500839">
        <ele>1573.3</ele>
        <time>2013-04-07T14:16:00Z</time>
      </trkpt>
      <trkpt lat="42.857272" lon="1.500951">
        <ele>1570.0</ele>
        <time>2013-04-07T14:16:07Z</time>
      </trkpt>
      <trkpt lat="42.857244" lon="1.501077">
        <ele>1566.1</ele>
        <time>2013-04-07T14:16:15Z</time>
      </trkpt>
      <trkpt lat="42.857220" lon="1.501202">
        <ele>1562.8</ele>
        <time>2013-04-07T14:16:23Z</time>
      </trkpt>
      <trkpt lat="42.857207" lon="1.501332">
        <ele>1558.9</ele>
        <time>2013-04-07T14:16:31Z</time>
      </trkpt>
      <trkpt lat="42.857188" lon="1.501457">
        <ele>1556.0</ele>
        <time>2013-04-07T14:16:39Z</time>
      </trkpt>
      <trkpt lat="42.857166" lon="1.501590">
        <ele>1552.2</ele>
        <time>2013-04-07T14:16:46Z</time>
      </trkpt>
      <trkpt lat="42.857151" lon="1.501725">
        <ele>1548.8</ele>
        <time>2013-04-07T14:16:56Z</time>
      </trkpt>
      <trkpt lat="42.857140" lon="1.501849">
        <ele>1545.9</ele>
        <time>2013-04-07T14:17:05Z</time>
      </trkpt>
      <trkpt lat="42.857131" lon="1.501976">
        <ele>1543.1</ele>
        <time>2013-04-07T14:17:14Z</time>
      </trkpt>
      <trkpt lat="42.857113" lon="1.502101">
        <ele>1539.7</ele>
        <time>2013-04-07T14:17:23Z</time>
      </trkpt>
      <trkpt lat="42.857083" lon="1.502236">
        <ele>1537.3</ele>
        <time>2013-04-07T14:17:33Z</time>
      </trkpt>
      <trkpt lat="42.857063" lon="1.502361">
        <ele>1535.8</ele>
        <time>2013-04-07T14:17:42Z</time>
      </trkpt>
      <trkpt lat="42.857052" lon="1.502487">
        <ele>1533.4</ele>
        <time>2013-04-07T14:17:52Z</time>
      </trkpt>
      <trkpt lat="42.857041" lon="1.502618">
        <ele>1531.5</ele>
        <time>2013-04-07T14:18:02Z</time>
      </trkpt>
      <trkpt lat="42.857027" lon="1.502750">
        <ele>1530.6</ele>
        <time>2013-04-07T14:18:15Z</time>
      </trkpt>
      <trkpt lat="42.856987" lon="1.502869">
        <ele>1530.1</ele>
        <time>2013-04-07T14:18:25Z</time>
      </trkpt>
      <trkpt lat="42.856930" lon="1.502981">
        <ele>1527.7</ele>
        <time>2013-04-07T14:18:35Z</time>
      </trkpt>
      <trkpt lat="42.856889" lon="1.503097">
        <ele>1525.8</ele>
        <time>2013-04-07T14:18:45Z</time>
      </trkpt>
      <trkpt lat="42.856861" lon="1.503213">
        <ele>1523.3</ele>
        <time>2013-04-07T14:18:54Z</time>
      </trkpt>
      <trkpt lat="42.856869" lon="1.503340">
        <ele>1522.4</ele>
        <time>2013-04-07T14:19:04Z</time>
      </trkpt>
      <trkpt lat="42.856871" lon="1.503466">
        <ele>1519.5</ele>
        <time>2013-04-07T14:19:15Z</time>
      </trkpt>
      <trkpt lat="42.856812" lon="1.503563">
        <ele>1516.6</ele>
        <time>2013-04-07T14:19:26Z</time>
      </trkpt>
      <trkpt lat="42.856781" lon="1.503687">
        <ele>1514.2</ele>
        <time>2013-04-07T14:19:39Z</time>
      </trkpt>
      <trkpt lat="42.856749" lon="1.503795">
        <ele>1511.3</ele>
        <time>2013-04-07T14:19:49Z</time>
      </trkpt>
      <trkpt lat="42.856713" lon="1.503914">
        <ele>1508.4</ele>
        <time>2013-04-07T14:20:00Z</time>
      </trkpt>
      <trkpt lat="42.856697" lon="1.504037">
        <ele>1506.0</ele>
        <time>2013-04-07T14:20:11Z</time>
      </trkpt>
      <trkpt lat="42.856664" lon="1.504150">
        <ele>1502.2</ele>
        <time>2013-04-07T14:20:23Z</time>
      </trkpt>
      <trkpt lat="42.856699" lon="1.504236">
        <ele>1500.3</ele>
        <time>2013-04-07T14:20:38Z</time>
      </trkpt>
      <trkpt lat="42.856722" lon="1.504358">
        <ele>1497.9</ele>
        <time>2013-04-07T14:20:50Z</time>
      </trkpt>
      <trkpt lat="42.856741" lon="1.504475">
        <ele>1495.5</ele>
        <time>2013-04-07T14:21:03Z</time>
      </trkpt>
      <trkpt lat="42.856788" lon="1.504565">
        <ele>1493.6</ele>
        <time>2013-04-07T14:22:11Z</time>
      </trkpt>
      <trkpt lat="42.856815" lon="1.504683">
        <ele>1490.7</ele>
        <time>2013-04-07T14:22:21Z</time>
      </trkpt>
      <trkpt lat="42.856868" lon="1.504799">
        <ele>1487.3</ele>
        <time>2013-04-07T14:22:32Z</time>
      </trkpt>
      <trkpt lat="42.856910" lon="1.504913">
        <ele>1483.4</ele>
        <time>2013-04-07T14:22:42Z</time>
      </trkpt>
      <trkpt lat="42.856957" lon="1.505021">
        <ele>1480.1</ele>
        <time>2013-04-07T14:22:52Z</time>
      </trkpt>
      <trkpt lat="42.856997" lon="1.505137">
        <ele>1477.2</ele>
        <time>2013-04-07T14:23:01Z</time>
      </trkpt>
      <trkpt lat="42.857033" lon="1.505252">
        <ele>1473.8</ele>
        <time>2013-04-07T14:23:09Z</time>
      </trkpt>
      <trkpt lat="42.857067" lon="1.505367">
        <ele>1470.5</ele>
        <time>2013-04-07T14:23:17Z</time>
      </trkpt>
      <trkpt lat="42.857108" lon="1.505477">
        <ele>1468.1</ele>
        <time>2013-04-07T14:23:25Z</time>
      </trkpt>
      <trkpt lat="42.857139" lon="1.505618">
        <ele>1464.7</ele>
        <time>2013-04-07T14:23:33Z</time>
      </trkpt>
      <trkpt lat="42.857155" lon="1.505741">
        <ele>1461.8</ele>
        <time>2013-04-07T14:23:41Z</time>
      </trkpt>
      <trkpt lat="42.857180" lon="1.505861">
        <ele>1458.5</ele>
        <time>2013-04-07T14:23:49Z</time>
      </trkpt>
      <trkpt lat="42.857197" lon="1.505985">
        <ele>1455.1</ele>
        <time>2013-04-07T14:23:56Z</time>
      </trkpt>
      <trkpt lat="42.857216" lon="1.506122">
        <ele>1452.2</ele>
        <time>2013-04-07T14:24:04Z</time>
      </trkpt>
      <trkpt lat="42.857227" lon="1.506256">
        <ele>1449.3</ele>
        <time>2013-04-07T14:24:12Z</time>
      </trkpt>
      <trkpt lat="42.857231" lon="1.506403">
        <ele>1446.0</ele>
        <time>2013-04-07T14:24:20Z</time>
      </trkpt>
      <trkpt lat="42.857228" lon="1.506530">
        <ele>1443.1</ele>
        <time>2013-04-07T14:24:27Z</time>
      </trkpt>
      <trkpt lat="42.857227" lon="1.506666">
        <ele>1439.7</ele>
        <time>2013-04-07T14:24:35Z</time>
      </trkpt>
      <trkpt lat="42.857216" lon="1.506805">
        <ele>1436.8</ele>
        <time>2013-04-07T14:24:43Z</time>
      </trkpt>
      <trkpt lat="42.857195" lon="1.506941">
        <ele>1433.9</ele>
        <time>2013-04-07T14:24:51Z</time>
      </trkpt>
      <trkpt lat="42.857169" lon="1.507068">
        <ele>1431.1</ele>
        <time>2013-04-07T14:24:59Z</time>
      </trkpt>
      <trkpt lat="42.857149" lon="1.507191">
        <ele>1429.1</ele>
        <time>2013-04-07T14:25:08Z</time>
      </trkpt>
      <trkpt lat="42.857119" lon="1.507309">
        <ele>1426.7</ele>
        <time>2013-04-07T14:25:17Z</time>
      </trkpt>
      <trkpt lat="42.857083" lon="1.507408">
        <ele>1426.2</ele>
        <time>2013-04-07T14:26:02Z</time>
      </trkpt>
      <trkpt lat="42.857076" lon="1.507550">
        <ele>1425.8</ele>
        <time>2013-04-07T14:26:10Z</time>
      </trkpt>
      <trkpt lat="42.857067" lon="1.507675">
        <ele>1425.3</ele>
        <time>2013-04-07T14:26:19Z</time>
      </trkpt>
      <trkpt lat="42.857066" lon="1.507812">
        <ele>1424.8</ele>
        <time>2013-04-07T14:26:28Z</time>
      </trkpt>
      <trkpt lat="42.857055" lon="1.507947">
        <ele>1423.8</ele>
        <time>2013-04-07T14:26:36Z</time>
      </trkpt>
      <trkpt lat="42.857052" lon="1.508081">
        <ele>1422.9</ele>
        <time>2013-04-07T14:26:45Z</time>
      </trkpt>
      <trkpt lat="42.857053" lon="1.508232">
        <ele>1421.4</ele>
        <time>2013-04-07T14:26:59Z</time>
      </trkpt>
      <trkpt lat="42.857086" lon="1.508362">
        <ele>1420.5</ele>
        <time>2013-04-07T14:27:08Z</time>
      </trkpt>
      <trkpt lat="42.857125" lon="1.508485">
        <ele>1420.0</ele>
        <time>2013-04-07T14:27:16Z</time>
      </trkpt>
      <trkpt lat="42.857140" lon="1.508609">
        <ele>1419.0</ele>
        <time>2013-04-07T14:27:24Z</time>
      </trkpt>
      <trkpt lat="42.857147" lon="1.508726">
        <ele>1417.6</ele>
        <time>2013-04-07T14:27:32Z</time>
      </trkpt>
      <trkpt lat="42.857168" lon="1.508847">
        <ele>1415.2</ele>
        <time>2013-04-07T14:27:44Z</time>
      </trkpt>
      <trkpt lat="42.857146" lon="1.508971">
        <ele>1412.3</ele>
        <time>2013-04-07T14:27:55Z</time>
      </trkpt>
      <trkpt lat="42.857163" lon="1.509098">
        <ele>1408.9</ele>
        <time>2013-04-07T14:28:05Z</time>
      </trkpt>
      <trkpt lat="42.857211" lon="1.509214">
        <ele>1407.0</ele>
        <time>2013-04-07T14:28:15Z</time>
      </trkpt>
      <trkpt lat="42.857244" lon="1.509332">
        <ele>1405.1</ele>
        <time>2013-04-07T14:28:25Z</time>
      </trkpt>
      <trkpt lat="42.857276" lon="1.509456">
        <ele>1402.2</ele>
        <time>2013-04-07T14:28:34Z</time>
      </trkpt>
      <trkpt lat="42.857296" lon="1.509573">
        <ele>1399.3</ele>
        <time>2013-04-07T14:28:42Z</time>
      </trkpt>
      <trkpt lat="42.857327" lon="1.509695">
        <ele>1396.0</ele>
        <time>2013-04-07T14:28:51Z</time>
      </trkpt>
      <trkpt lat="42.857383" lon="1.509801">
        <ele>1392.1</ele>
        <time>2013-04-07T14:29:31Z</time>
      </trkpt>
      <trkpt lat="42.857464" lon="1.509866">
        <ele>1390.7</ele>
        <time>2013-04-07T14:29:40Z</time>
      </trkpt>
      <trkpt lat="42.857543" lon="1.509924">
        <ele>1389.2</ele>
        <time>2013-04-07T14:29:48Z</time>
      </trkpt>
      <trkpt lat="42.857635" lon="1.509974">
        <ele>1387.3</ele>
        <time>2013-04-07T14:29:56Z</time>
      </trkpt>
      <trkpt lat="42.857690" lon="1.510063">
        <ele>1384.9</ele>
        <time>2013-04-07T14:30:24Z</time>
      </trkpt>
      <trkpt lat="42.857699" lon="1.510200">
        <ele>1382.5</ele>
        <time>2013-04-07T14:30:32Z</time>
      </trkpt>
      <trkpt lat="42.857674" lon="1.510319">
        <ele>1380.6</ele>
        <time>2013-04-07T14:30:49Z</time>
      </trkpt>
      <trkpt lat="42.857675" lon="1.510393">
        <ele>1380.1</ele>
        <time>2013-04-07T14:31:41Z</time>
      </trkpt>
      <trkpt lat="42.857684" lon="1.510428">
        <ele>1377.2</ele>
        <time>2013-04-07T14:32:48Z</time>
      </trkpt>
      <trkpt lat="42.857678" lon="1.510420">
        <ele>1408.5</ele>
        <time>2013-04-07T14:35:00Z</time>
      </trkpt>
      <trkpt lat="42.857685" lon="1.510536">
        <ele>1406.1</ele>
        <time>2013-04-07T14:36:57Z</time>
      </trkpt>
      <trkpt lat="42.857615" lon="1.510607">
        <ele>1403.7</ele>
        <time>2013-04-07T14:37:26Z</time>
      </trkpt>
      <trkpt lat="42.857573" lon="1.510713">
        <ele>1399.8</ele>
        <time>2013-04-07T14:37:38Z</time>
      </trkpt>
      <trkpt lat="42.857545" lon="1.510818">
        <ele>1394.5</ele>
        <time>2013-04-07T14:37:48Z</time>
      </trkpt>
      <trkpt lat="42.857639" lon="1.510873">
        <ele>1393.1</ele>
        <time>2013-04-07T14:37:58Z</time>
      </trkpt>
      <trkpt lat="42.857702" lon="1.510956">
        <ele>1392.1</ele>
        <time>2013-04-07T14:38:09Z</time>
      </trkpt>
      <trkpt lat="42.857726" lon="1.511078">
        <ele>1387.8</ele>
        <time>2013-04-07T14:38:17Z</time>
      </trkpt>
      <trkpt lat="42.857743" lon="1.511220">
        <ele>1383.5</ele>
        <time>2013-04-07T14:38:23Z</time>
      </trkpt>
      <trkpt lat="42.857817" lon="1.511298">
        <ele>1379.2</ele>
        <time>2013-04-07T14:38:35Z</time>
      </trkpt>
      <trkpt lat="42.857855" lon="1.511403">
        <ele>1374.8</ele>
        <time>2013-04-07T14:38:42Z</time>
      </trkpt>
      <trkpt lat="42.857895" lon="1.511519">
        <ele>1371.0</ele>
        <time>2013-04-07T14:38:48Z</time>
      </trkpt>
      <trkpt lat="42.857917" lon="1.511640">
        <ele>1366.7</ele>
        <time>2013-04-07T14:38:54Z</time>
      </trkpt>
      <trkpt lat="42.857976" lon="1.511756">
        <ele>1360.9</ele>
        <time>2013-04-07T14:39:00Z</time>
      </trkpt>
      <trkpt lat="42.858029" lon="1.511872">
        <ele>1357.0</ele>
        <time>2013-04-07T14:39:06Z</time>
      </trkpt>
      <trkpt lat="42.858081" lon="1.511989">
        <ele>1352.7</ele>
        <time>2013-04-07T14:39:12Z</time>
      </trkpt>
      <trkpt lat="42.858128" lon="1.512095">
        <ele>1348.4</ele>
        <time>2013-04-07T14:39:18Z</time>
      </trkpt>
      <trkpt lat="42.858168" lon="1.512211">
        <ele>1344.5</ele>
        <time>2013-04-07T14:39:24Z</time>
      </trkpt>
      <trkpt lat="42.858204" lon="1.512321">
        <ele>1340.7</ele>
        <time>2013-04-07T14:39:30Z</time>
      </trkpt>
      <trkpt lat="42.858191" lon="1.512461">
        <ele>1336.8</ele>
        <time>2013-04-07T14:39:43Z</time>
      </trkpt>
      <trkpt lat="42.858237" lon="1.512570">
        <ele>1333.0</ele>
        <time>2013-04-07T14:39:51Z</time>
      </trkpt>
      <trkpt lat="42.858283" lon="1.512683">
        <ele>1329.2</ele>
        <time>2013-04-07T14:39:59Z</time>
      </trkpt>
      <trkpt lat="42.858323" lon="1.512803">
        <ele>1324.8</ele>
        <time>2013-04-07T14:40:15Z</time>
      </trkpt>
      <trkpt lat="42.858358" lon="1.512928">
        <ele>1320.5</ele>
        <time>2013-04-07T14:40:21Z</time>
      </trkpt>
      <trkpt lat="42.858409" lon="1.513051">
        <ele>1318.1</ele>
        <time>2013-04-07T14:40:29Z</time>
      </trkpt>
      <trkpt lat="42.858470" lon="1.513165">
        <ele>1313.8</ele>
        <time>2013-04-07T14:40:37Z</time>
      </trkpt>
      <trkpt lat="42.858553" lon="1.513239">
        <ele>1310.9</ele>
        <time>2013-04-07T14:40:46Z</time>
      </trkpt>
      <trkpt lat="42.858611" lon="1.513296">
        <ele>1307.5</ele>
        <time>2013-04-07T14:41:35Z</time>
      </trkpt>
      <trkpt lat="42.858690" lon="1.513362">
        <ele>1305.6</ele>
        <time>2013-04-07T14:41:45Z</time>
      </trkpt>
      <trkpt lat="42.858753" lon="1.513452">
        <ele>1301.3</ele>
        <time>2013-04-07T14:42:04Z</time>
      </trkpt>
      <trkpt lat="42.858815" lon="1.513545">
        <ele>1296.5</ele>
        <time>2013-04-07T14:42:14Z</time>
      </trkpt>
      <trkpt lat="42.858869" lon="1.513637">
        <ele>1293.6</ele>
        <time>2013-04-07T14:42:24Z</time>
      </trkpt>
      <trkpt lat="42.858938" lon="1.513749">
        <ele>1291.2</ele>
        <time>2013-04-07T14:42:36Z</time>
      </trkpt>
      <trkpt lat="42.859016" lon="1.513814">
        <ele>1289.3</ele>
        <time>2013-04-07T14:42:47Z</time>
      </trkpt>
      <trkpt lat="42.859108" lon="1.513853">
        <ele>1287.3</ele>
        <time>2013-04-07T14:42:58Z</time>
      </trkpt>
      <trkpt lat="42.859187" lon="1.513935">
        <ele>1285.9</ele>
        <time>2013-04-07T14:43:10Z</time>
      </trkpt>
      <trkpt lat="42.859267" lon="1.514061">
        <ele>1284.5</ele>
        <time>2013-04-07T14:43:26Z</time>
      </trkpt>
      <trkpt lat="42.859336" lon="1.514162">
        <ele>1282.1</ele>
        <time>2013-04-07T14:43:36Z</time>
      </trkpt>
      <trkpt lat="42.859378" lon="1.514278">
        <ele>1280.1</ele>
        <time>2013-04-07T14:43:46Z</time>
      </trkpt>
      <trkpt lat="42.859415" lon="1.514395">
        <ele>1276.8</ele>
        <time>2013-04-07T14:43:56Z</time>
      </trkpt>
      <trkpt lat="42.859457" lon="1.514521">
        <ele>1273.9</ele>
        <time>2013-04-07T14:44:05Z</time>
      </trkpt>
      <trkpt lat="42.859485" lon="1.514642">
        <ele>1272.0</ele>
        <time>2013-04-07T14:44:16Z</time>
      </trkpt>
      <trkpt lat="42.859549" lon="1.514730">
        <ele>1269.1</ele>
        <time>2013-04-07T14:44:27Z</time>
      </trkpt>
      <trkpt lat="42.859589" lon="1.514834">
        <ele>1265.2</ele>
        <time>2013-04-07T14:44:53Z</time>
      </trkpt>
      <trkpt lat="42.859656" lon="1.514921">
        <ele>1261.9</ele>
        <time>2013-04-07T14:45:03Z</time>
      </trkpt>
      <trkpt lat="42.859715" lon="1.515022">
        <ele>1259.0</ele>
        <time>2013-04-07T14:45:13Z</time>
      </trkpt>
      <trkpt lat="42.859806" lon="1.515045">
        <ele>1254.2</ele>
        <time>2013-04-07T14:45:25Z</time>
      </trkpt>
      <trkpt lat="42.859908" lon="1.515040">
        <ele>1250.8</ele>
        <time>2013-04-07T14:45:36Z</time>
      </trkpt>
      <trkpt lat="42.859978" lon="1.515095">
        <ele>1247.0</ele>
        <time>2013-04-07T14:45:47Z</time>
      </trkpt>
      <trkpt lat="42.860012" lon="1.515218">
        <ele>1243.6</ele>
        <time>2013-04-07T14:45:58Z</time>
      </trkpt>
      <trkpt lat="42.860098" lon="1.515186">
        <ele>1240.7</ele>
        <time>2013-04-07T14:46:07Z</time>
      </trkpt>
      <trkpt lat="42.860162" lon="1.515241">
        <ele>1236.4</ele>
        <time>2013-04-07T14:46:19Z</time>
      </trkpt>
      <trkpt lat="42.860277" lon="1.515349">
        <ele>1233.5</ele>
        <time>2013-04-07T14:46:56Z</time>
      </trkpt>
      <trkpt lat="42.860343" lon="1.515422">
        <ele>1230.1</ele>
        <time>2013-04-07T14:47:08Z</time>
      </trkpt>
      <trkpt lat="42.860393" lon="1.515494">
        <ele>1225.8</ele>
        <time>2013-04-07T14:47:21Z</time>
      </trkpt>
      <trkpt lat="42.860460" lon="1.515584">
        <ele>1221.5</ele>
        <time>2013-04-07T14:47:30Z</time>
      </trkpt>
      <trkpt lat="42.860524" lon="1.515662">
        <ele>1217.2</ele>
        <time>2013-04-07T14:47:40Z</time>
      </trkpt>
      <trkpt lat="42.860595" lon="1.515708">
        <ele>1213.8</ele>
        <time>2013-04-07T14:47:50Z</time>
      </trkpt>
      <trkpt lat="42.860667" lon="1.515828">
        <ele>1210.0</ele>
        <time>2013-04-07T14:48:03Z</time>
      </trkpt>
      <trkpt lat="42.860765" lon="1.515848">
        <ele>1204.7</ele>
        <time>2013-04-07T14:48:13Z</time>
      </trkpt>
      <trkpt lat="42.860790" lon="1.515946">
        <ele>1202.3</ele>
        <time>2013-04-07T14:50:57Z</time>
        <cmt>Col de Carlong</cmt>
      </trkpt>
      <trkpt lat="42.860864" lon="1.515997">
        <ele>1198.9</ele>
        <time>2013-04-07T14:51:08Z</time>
      </trkpt>
      <trkpt lat="42.860915" lon="1.516067">
        <ele>1197.5</ele>
        <time>2013-04-07T14:51:33Z</time>
      </trkpt>
      <trkpt lat="42.860905" lon="1.516207">
        <ele>1196.0</ele>
        <time>2013-04-07T14:52:38Z</time>
      </trkpt>
      <trkpt lat="42.860954" lon="1.516286">
        <ele>1193.1</ele>
        <time>2013-04-07T14:52:52Z</time>
      </trkpt>
      <trkpt lat="42.861024" lon="1.516353">
        <ele>1190.7</ele>
        <time>2013-04-07T14:53:05Z</time>
      </trkpt>
      <trkpt lat="42.861046" lon="1.516493">
        <ele>1188.3</ele>
        <time>2013-04-07T14:53:19Z</time>
      </trkpt>
      <trkpt lat="42.861110" lon="1.516594">
        <ele>1185.9</ele>
        <time>2013-04-07T14:53:30Z</time>
      </trkpt>
      <trkpt lat="42.861155" lon="1.516715">
        <ele>1184.0</ele>
        <time>2013-04-07T14:53:40Z</time>
      </trkpt>
      <trkpt lat="42.861204" lon="1.516829">
        <ele>1183.0</ele>
        <time>2013-04-07T14:53:50Z</time>
      </trkpt>
      <trkpt lat="42.861269" lon="1.516940">
        <ele>1182.1</ele>
        <time>2013-04-07T14:54:02Z</time>
      </trkpt>
      <trkpt lat="42.861359" lon="1.517040">
        <ele>1180.2</ele>
        <time>2013-04-07T14:54:17Z</time>
      </trkpt>
      <trkpt lat="42.861462" lon="1.517097">
        <ele>1177.8</ele>
        <time>2013-04-07T14:54:30Z</time>
      </trkpt>
      <trkpt lat="42.861608" lon="1.517229">
        <ele>1174.4</ele>
        <time>2013-04-07T14:54:44Z</time>
      </trkpt>
      <trkpt lat="42.861733" lon="1.517380">
        <ele>1169.6</ele>
        <time>2013-04-07T14:55:03Z</time>
      </trkpt>
      <trkpt lat="42.861815" lon="1.517541">
        <ele>1165.7</ele>
        <time>2013-04-07T14:55:20Z</time>
      </trkpt>
      <trkpt lat="42.861890" lon="1.517799">
        <ele>1161.9</ele>
        <time>2013-04-07T14:55:40Z</time>
      </trkpt>
      <trkpt lat="42.861910" lon="1.517979">
        <ele>1159.0</ele>
        <time>2013-04-07T14:55:54Z</time>
      </trkpt>
      <trkpt lat="42.861974" lon="1.518241">
        <ele>1154.7</ele>
        <time>2013-04-07T14:56:19Z</time>
      </trkpt>
      <trkpt lat="42.861999" lon="1.518491">
        <ele>1150.8</ele>
        <time>2013-04-07T14:56:39Z</time>
      </trkpt>
      <trkpt lat="42.862038" lon="1.518729">
        <ele>1145.6</ele>
        <time>2013-04-07T14:57:00Z</time>
      </trkpt>
      <trkpt lat="42.862056" lon="1.518967">
        <ele>1141.2</ele>
        <time>2013-04-07T14:57:18Z</time>
      </trkpt>
      <trkpt lat="42.862091" lon="1.519188">
        <ele>1137.4</ele>
        <time>2013-04-07T14:57:41Z</time>
      </trkpt>
      <trkpt lat="42.862152" lon="1.519555">
        <ele>1129.7</ele>
        <time>2013-04-07T14:58:07Z</time>
      </trkpt>
      <trkpt lat="42.862187" lon="1.519754">
        <ele>1125.8</ele>
        <time>2013-04-07T14:58:29Z</time>
      </trkpt>
      <trkpt lat="42.862359" lon="1.520013">
        <ele>1120.6</ele>
        <time>2013-04-07T14:58:55Z</time>
      </trkpt>
      <trkpt lat="42.862574" lon="1.520083">
        <ele>1111.9</ele>
        <time>2013-04-07T14:59:29Z</time>
      </trkpt>
      <trkpt lat="42.863262" lon="1.519866">
        <ele>1104.2</ele>
        <time>2013-04-07T15:00:44Z</time>
      </trkpt>
      <trkpt lat="42.863614" lon="1.519771">
        <ele>1104.7</ele>
        <time>2013-04-07T15:01:18Z</time>
      </trkpt>
      <trkpt lat="42.863748" lon="1.519823">
        <ele>1105.2</ele>
        <time>2013-04-07T15:01:32Z</time>
      </trkpt>
      <trkpt lat="42.863844" lon="1.519934">
        <ele>1104.2</ele>
        <time>2013-04-07T15:01:47Z</time>
      </trkpt>
      <trkpt lat="42.863887" lon="1.520077">
        <ele>1101.8</ele>
        <time>2013-04-07T15:01:59Z</time>
      </trkpt>
      <trkpt lat="42.863840" lon="1.520229">
        <ele>1100.4</ele>
        <time>2013-04-07T15:02:13Z</time>
      </trkpt>
      <trkpt lat="42.863809" lon="1.520445">
        <ele>1097.5</ele>
        <time>2013-04-07T15:02:55Z</time>
      </trkpt>
      <trkpt lat="42.863730" lon="1.520561">
        <ele>1095.6</ele>
        <time>2013-04-07T15:03:08Z</time>
      </trkpt>
      <trkpt lat="42.863679" lon="1.520738">
        <ele>1095.1</ele>
        <time>2013-04-07T15:03:22Z</time>
      </trkpt>
      <trkpt lat="42.863697" lon="1.520925">
        <ele>1091.7</ele>
        <time>2013-04-07T15:03:37Z</time>
      </trkpt>
      <trkpt lat="42.863678" lon="1.521113">
        <ele>1090.3</ele>
        <time>2013-04-07T15:03:52Z</time>
      </trkpt>
      <trkpt lat="42.863645" lon="1.521376">
        <ele>1089.3</ele>
        <time>2013-04-07T15:04:10Z</time>
      </trkpt>
      <trkpt lat="42.863667" lon="1.521650">
        <ele>1085.0</ele>
        <time>2013-04-07T15:04:28Z</time>
      </trkpt>
      <trkpt lat="42.863839" lon="1.521731">
        <ele>1079.2</ele>
        <time>2013-04-07T15:04:57Z</time>
      </trkpt>
      <trkpt lat="42.864034" lon="1.521780">
        <ele>1074.4</ele>
        <time>2013-04-07T15:05:16Z</time>
      </trkpt>
      <trkpt lat="42.864153" lon="1.521835">
        <ele>1073.0</ele>
        <time>2013-04-07T15:06:01Z</time>
      </trkpt>
      <trkpt lat="42.864199" lon="1.522046">
        <ele>1070.6</ele>
        <time>2013-04-07T15:06:19Z</time>
      </trkpt>
      <trkpt lat="42.864298" lon="1.522044">
        <ele>1067.7</ele>
        <time>2013-04-07T15:06:42Z</time>
      </trkpt>
      <trkpt lat="42.864609" lon="1.521944">
        <ele>1060.5</ele>
        <time>2013-04-07T15:07:19Z</time>
      </trkpt>
      <trkpt lat="42.864605" lon="1.522077">
        <ele>1058.1</ele>
        <time>2013-04-07T15:07:34Z</time>
      </trkpt>
      <trkpt lat="42.864583" lon="1.522271">
        <ele>1055.2</ele>
        <time>2013-04-07T15:07:52Z</time>
      </trkpt>
      <trkpt lat="42.864489" lon="1.522499">
        <ele>1049.9</ele>
        <time>2013-04-07T15:08:15Z</time>
      </trkpt>
      <trkpt lat="42.864416" lon="1.522713">
        <ele>1044.6</ele>
        <time>2013-04-07T15:08:36Z</time>
      </trkpt>
      <trkpt lat="42.864347" lon="1.522945">
        <ele>1039.8</ele>
        <time>2013-04-07T15:08:57Z</time>
      </trkpt>
      <trkpt lat="42.864320" lon="1.523250">
        <ele>1034.0</ele>
        <time>2013-04-07T15:09:21Z</time>
      </trkpt>
      <trkpt lat="42.864392" lon="1.523557">
        <ele>1027.8</ele>
        <time>2013-04-07T15:09:46Z</time>
      </trkpt>
      <trkpt lat="42.864430" lon="1.523790">
        <ele>1023.0</ele>
        <time>2013-04-07T15:10:08Z</time>
      </trkpt>
      <trkpt lat="42.864482" lon="1.523999">
        <ele>1019.1</ele>
        <time>2013-04-07T15:10:23Z</time>
      </trkpt>
      <trkpt lat="42.864502" lon="1.524296">
        <ele>1023.0</ele>
        <time>2013-04-07T15:10:48Z</time>
      </trkpt>
      <trkpt lat="42.864541" lon="1.524452">
        <ele>1013.8</ele>
        <time>2013-04-07T15:14:09Z</time>
      </trkpt>
      <trkpt lat="42.864550" lon="1.524577">
        <ele>1011.9</ele>
        <time>2013-04-07T15:14:19Z</time>
      </trkpt>
      <trkpt lat="42.864540" lon="1.524688">
        <ele>1010.5</ele>
        <time>2013-04-07T15:14:26Z</time>
      </trkpt>
      <trkpt lat="42.864572" lon="1.524868">
        <ele>1007.6</ele>
        <time>2013-04-07T15:14:35Z</time>
      </trkpt>
      <trkpt lat="42.864589" lon="1.524982">
        <ele>1006.2</ele>
        <time>2013-04-07T15:14:39Z</time>
      </trkpt>
      <trkpt lat="42.864667" lon="1.525007">
        <ele>997.0</ele>
        <time>2013-04-07T15:18:15Z</time>
      </trkpt>
      <trkpt lat="42.864787" lon="1.524889">
        <ele>992.2</ele>
        <time>2013-04-07T15:18:30Z</time>
      </trkpt>
      <trkpt lat="42.864885" lon="1.524729">
        <ele>988.8</ele>
        <time>2013-04-07T15:18:44Z</time>
      </trkpt>
      <trkpt lat="42.865053" lon="1.524404">
        <ele>981.2</ele>
        <time>2013-04-07T15:19:13Z</time>
      </trkpt>
      <trkpt lat="42.865213" lon="1.524061">
        <ele>974.0</ele>
        <time>2013-04-07T15:19:39Z</time>
      </trkpt>
      <trkpt lat="42.865322" lon="1.523939">
        <ele>970.1</ele>
        <time>2013-04-07T15:19:54Z</time>
      </trkpt>
      <trkpt lat="42.865529" lon="1.523737">
        <ele>961.9</ele>
        <time>2013-04-07T15:20:21Z</time>
      </trkpt>
      <trkpt lat="42.865757" lon="1.523606">
        <ele>952.8</ele>
        <time>2013-04-07T15:20:52Z</time>
      </trkpt>
      <trkpt lat="42.865865" lon="1.523699">
        <ele>946.6</ele>
        <time>2013-04-07T15:21:14Z</time>
      </trkpt>
      <trkpt lat="42.865871" lon="1.523894">
        <ele>942.7</ele>
        <time>2013-04-07T15:21:27Z</time>
      </trkpt>
      <trkpt lat="42.865849" lon="1.524180">
        <ele>938.4</ele>
        <time>2013-04-07T15:21:48Z</time>
      </trkpt>
      <trkpt lat="42.865937" lon="1.524468">
        <ele>933.6</ele>
        <time>2013-04-07T15:22:07Z</time>
      </trkpt>
      <trkpt lat="42.865934" lon="1.524615">
        <ele>930.2</ele>
        <time>2013-04-07T15:22:20Z</time>
      </trkpt>
      <trkpt lat="42.865967" lon="1.524852">
        <ele>925.4</ele>
        <time>2013-04-07T15:22:37Z</time>
      </trkpt>
      <trkpt lat="42.866138" lon="1.525035">
        <ele>915.3</ele>
        <time>2013-04-07T15:23:14Z</time>
      </trkpt>
      <trkpt lat="42.866274" lon="1.525029">
        <ele>904.7</ele>
        <time>2013-04-07T15:23:46Z</time>
      </trkpt>
      <trkpt lat="42.866343" lon="1.525196">
        <ele>899.9</ele>
        <time>2013-04-07T15:24:03Z</time>
      </trkpt>
      <trkpt lat="42.866466" lon="1.525349">
        <ele>894.2</ele>
        <time>2013-04-07T15:24:21Z</time>
      </trkpt>
      <trkpt lat="42.866520" lon="1.525196">
        <ele>888.9</ele>
        <time>2013-04-07T15:24:46Z</time>
      </trkpt>
      <trkpt lat="42.866628" lon="1.525083">
        <ele>885.5</ele>
        <time>2013-04-07T15:24:58Z</time>
      </trkpt>
      <trkpt lat="42.866684" lon="1.524932">
        <ele>881.7</ele>
        <time>2013-04-07T15:26:07Z</time>
      </trkpt>
      <trkpt lat="42.866811" lon="1.524732">
        <ele>874.9</ele>
        <time>2013-04-07T15:26:41Z</time>
      </trkpt>
      <trkpt lat="42.867091" lon="1.524619">
        <ele>870.1</ele>
        <time>2013-04-07T15:29:24Z</time>
      </trkpt>
      <trkpt lat="42.867249" lon="1.524584">
        <ele>865.8</ele>
        <time>2013-04-07T15:29:53Z</time>
      </trkpt>
      <trkpt lat="42.867448" lon="1.524600">
        <ele>862.9</ele>
        <time>2013-04-07T15:30:14Z</time>
      </trkpt>
      <trkpt lat="42.867615" lon="1.524593">
        <ele>859.6</ele>
        <time>2013-04-07T15:30:35Z</time>
      </trkpt>
      <trkpt lat="42.867794" lon="1.524404">
        <ele>856.7</ele>
        <time>2013-04-07T15:30:56Z</time>
      </trkpt>
      <trkpt lat="42.867996" lon="1.524255">
        <ele>853.3</ele>
        <time>2013-04-07T15:31:16Z</time>
      </trkpt>
      <trkpt lat="42.868140" lon="1.524125">
        <ele>850.9</ele>
        <time>2013-04-07T15:31:40Z</time>
      </trkpt>
      <trkpt lat="42.868386" lon="1.524060">
        <ele>846.1</ele>
        <time>2013-04-07T15:32:06Z</time>
      </trkpt>
      <trkpt lat="42.868566" lon="1.523998">
        <ele>841.3</ele>
        <time>2013-04-07T15:32:25Z</time>
      </trkpt>
      <trkpt lat="42.868719" lon="1.524005">
        <ele>839.4</ele>
        <time>2013-04-07T15:32:46Z</time>
      </trkpt>
      <trkpt lat="42.868778" lon="1.524142">
        <ele>837.9</ele>
        <time>2013-04-07T15:34:36Z</time>
      </trkpt>
      <trkpt lat="42.868902" lon="1.524106">
        <ele>835.5</ele>
        <time>2013-04-07T15:34:46Z</time>
      </trkpt>
      <trkpt lat="42.868943" lon="1.523961">
        <ele>836.5</ele>
        <time>2013-04-07T15:34:58Z</time>
      </trkpt>
      <trkpt lat="42.869018" lon="1.523749">
        <ele>835.5</ele>
        <time>2013-04-07T15:35:14Z</time>
      </trkpt>
      <trkpt lat="42.869051" lon="1.523587">
        <ele>834.1</ele>
        <time>2013-04-07T15:35:26Z</time>
      </trkpt>
      <trkpt lat="42.869103" lon="1.523390">
        <ele>831.2</ele>
        <time>2013-04-07T15:35:39Z</time>
      </trkpt>
      <trkpt lat="42.869097" lon="1.523235">
        <ele>829.3</ele>
        <time>2013-04-07T15:35:54Z</time>
      </trkpt>
      <trkpt lat="42.869120" lon="1.522977">
        <ele>826.9</ele>
        <time>2013-04-07T15:36:16Z</time>
      </trkpt>
      <trkpt lat="42.869079" lon="1.522769">
        <ele>825.9</ele>
        <time>2013-04-07T15:36:31Z</time>
      </trkpt>
      <trkpt lat="42.869027" lon="1.522388">
        <ele>822.5</ele>
        <time>2013-04-07T15:37:09Z</time>
      </trkpt>
      <trkpt lat="42.869020" lon="1.522243">
        <ele>822.1</ele>
        <time>2013-04-07T15:37:24Z</time>
      </trkpt>
      <trkpt lat="42.869116" lon="1.522184">
        <ele>822.5</ele>
        <time>2013-04-07T15:37:37Z</time>
      </trkpt>
      <trkpt lat="42.869274" lon="1.522071">
        <ele>819.7</ele>
        <time>2013-04-07T15:38:01Z</time>
      </trkpt>
      <trkpt lat="42.869400" lon="1.521901">
        <ele>816.3</ele>
        <time>2013-04-07T15:38:20Z</time>
      </trkpt>
      <trkpt lat="42.869576" lon="1.521669">
        <ele>811.0</ele>
        <time>2013-04-07T15:38:48Z</time>
      </trkpt>
      <trkpt lat="42.869785" lon="1.521400">
        <ele>806.2</ele>
        <time>2013-04-07T15:39:19Z</time>
      </trkpt>
      <trkpt lat="42.869975" lon="1.521237">
        <ele>803.8</ele>
        <time>2013-04-07T15:39:52Z</time>
      </trkpt>
      <trkpt lat="42.870089" lon="1.521055">
        <ele>801.4</ele>
        <time>2013-04-07T15:40:15Z</time>
      </trkpt>
      <trkpt lat="42.870257" lon="1.520998">
        <ele>798.0</ele>
        <time>2013-04-07T15:40:38Z</time>
      </trkpt>
      <trkpt lat="42.870406" lon="1.520997">
        <ele>794.2</ele>
        <time>2013-04-07T15:40:53Z</time>
      </trkpt>
      <trkpt lat="42.870506" lon="1.521027">
        <ele>792.3</ele>
        <time>2013-04-07T15:41:06Z</time>
      </trkpt>
      <trkpt lat="42.870605" lon="1.521024">
        <ele>789.9</ele>
        <time>2013-04-07T15:41:22Z</time>
      </trkpt>
      <trkpt lat="42.870729" lon="1.521138">
        <ele>785.0</ele>
        <time>2013-04-07T15:41:45Z</time>
      </trkpt>
      <trkpt lat="42.870873" lon="1.521159">
        <ele>783.1</ele>
        <time>2013-04-07T15:42:18Z</time>
      </trkpt>
      <trkpt lat="42.871135" lon="1.521367">
        <ele>777.4</ele>
        <time>2013-04-07T15:43:37Z</time>
      </trkpt>
      <trkpt lat="42.871291" lon="1.521490">
        <ele>773.5</ele>
        <time>2013-04-07T15:44:06Z</time>
      </trkpt>
      <trkpt lat="42.871475" lon="1.521511">
        <ele>773.0</ele>
        <time>2013-04-07T15:44:59Z</time>
      </trkpt>
      <trkpt lat="42.871364" lon="1.521503">
        <ele>772.6</ele>
        <time>2013-04-07T15:45:29Z</time>
      </trkpt>
      <trkpt lat="42.871516" lon="1.521562">
        <ele>771.6</ele>
        <time>2013-04-07T15:47:28Z</time>
      </trkpt>
      <trkpt lat="42.871569" lon="1.521665">
        <ele>771.1</ele>
        <time>2013-04-07T15:47:37Z</time>
      </trkpt>
      <trkpt lat="42.871632" lon="1.521798">
        <ele>769.7</ele>
        <time>2013-04-07T15:47:48Z</time>
      </trkpt>
      <trkpt lat="42.871689" lon="1.521915">
        <ele>768.2</ele>
        <time>2013-04-07T15:47:58Z</time>
      </trkpt>
      <trkpt lat="42.871780" lon="1.522027">
        <ele>767.3</ele>
        <time>2013-04-07T15:48:08Z</time>
      </trkpt>
      <trkpt lat="42.871872" lon="1.522122">
        <ele>766.3</ele>
        <time>2013-04-07T15:48:17Z</time>
      </trkpt>
      <trkpt lat="42.871984" lon="1.522156">
        <ele>764.9</ele>
        <time>2013-04-07T15:48:27Z</time>
      </trkpt>
      <trkpt lat="42.872093" lon="1.522123">
        <ele>764.4</ele>
        <time>2013-04-07T15:48:36Z</time>
      </trkpt>
      <trkpt lat="42.872188" lon="1.522069">
        <ele>764.4</ele>
        <time>2013-04-07T15:48:44Z</time>
      </trkpt>
      <trkpt lat="42.872274" lon="1.522013">
        <ele>763.9</ele>
        <time>2013-04-07T15:48:53Z</time>
      </trkpt>
      <trkpt lat="42.872378" lon="1.521988">
        <ele>762.9</ele>
        <time>2013-04-07T15:49:02Z</time>
      </trkpt>
      <trkpt lat="42.872477" lon="1.522024">
        <ele>761.5</ele>
        <time>2013-04-07T15:49:12Z</time>
      </trkpt>
      <trkpt lat="42.872573" lon="1.522116">
        <ele>761.0</ele>
        <time>2013-04-07T15:49:22Z</time>
      </trkpt>
      <trkpt lat="42.872683" lon="1.522215">
        <ele>760.1</ele>
        <time>2013-04-07T15:49:32Z</time>
      </trkpt>
      <trkpt lat="42.872745" lon="1.522293">
        <ele>758.6</ele>
        <time>2013-04-07T15:49:38Z</time>
      </trkpt>
      <trkpt lat="42.872825" lon="1.522337">
        <ele>757.7</ele>
        <time>2013-04-07T15:49:46Z</time>
      </trkpt>
      <trkpt lat="42.872942" lon="1.522413">
        <ele>756.2</ele>
        <time>2013-04-07T15:49:55Z</time>
      </trkpt>
      <trkpt lat="42.873043" lon="1.522487">
        <ele>755.7</ele>
        <time>2013-04-07T15:50:04Z</time>
      </trkpt>
      <trkpt lat="42.873184" lon="1.522475">
        <ele>747.6</ele>
        <time>2013-04-07T15:50:15Z</time>
      </trkpt>
      <trkpt lat="42.873308" lon="1.522439">
        <ele>752.8</ele>
        <time>2013-04-07T15:50:27Z</time>
      </trkpt>
      <trkpt lat="42.873437" lon="1.522364">
        <ele>753.3</ele>
        <time>2013-04-07T15:50:36Z</time>
      </trkpt>
      <trkpt lat="42.873572" lon="1.522357">
        <ele>753.3</ele>
        <time>2013-04-07T15:50:46Z</time>
      </trkpt>
      <trkpt lat="42.873682" lon="1.522236">
        <ele>755.7</ele>
        <time>2013-04-07T15:50:56Z</time>
      </trkpt>
      <trkpt lat="42.873784" lon="1.522130">
        <ele>753.3</ele>
        <time>2013-04-07T15:51:06Z</time>
      </trkpt>
      <trkpt lat="42.873850" lon="1.522032">
        <ele>753.3</ele>
        <time>2013-04-07T15:51:15Z</time>
      </trkpt>
      <trkpt lat="42.873892" lon="1.521972">
        <ele>752.8</ele>
        <time>2013-04-07T15:51:32Z</time>
      </trkpt>
      <trkpt lat="42.873938" lon="1.521845">
        <ele>753.8</ele>
        <time>2013-04-07T15:51:41Z</time>
      </trkpt>
      <trkpt lat="42.874003" lon="1.521733">
        <ele>755.2</ele>
        <time>2013-04-07T15:51:53Z</time>
        <cmt>Route de Carpidou</cmt>
      </trkpt>
    </trkseg>
  </trk>
</gpx>

